Flight Track Log - Related Links

Times and Time Zones

All times are in EDT time to prevent confusion due to time zone crossing. See the AFL150 flight status page for this flight to view local times or setup timezone preferences in your user account.

Time Position Orientation Groundspeed Altitude Reporting Facility
EDT Latitude Longitude Course Direction KTS MPH feet Rate Location/Type
Thu 06:20:20 55.9660 37.3780 254° West 176 203 1,100  Level FlightAware ADS-B
Thu 06:20:35 55.9630 37.3570 256° West 173 199 1,800 2,400 Climbing FlightAware ADS-B
Thu 06:20:55 55.9590 37.3290 256° West 178 205 2,500 1,333 Climbing FlightAware ADS-B
Thu 06:21:20 55.9530 37.2910 254° West 204 235 2,800 800 Climbing FlightAware ADS-B
Thu 06:21:40 55.9480 37.2560 256° West 226 260 3,100 1,050 Climbing FlightAware ADS-B
Thu 06:22:00 55.9430 37.2190 256° West 247 284 3,500 1,440 Climbing FlightAware ADS-B
Thu 06:22:05 55.9430 37.2070 270° West 251 289 3,700 3,000 Climbing FlightAware ADS-B
Thu 06:22:30 55.9480 37.1570 280° West 245 282 5,000 3,067 Climbing FlightAware ADS-B
Thu 06:22:50 55.9530 37.1170 283° West 242 278 6,000 2,400 Climbing FlightAware ADS-B
Thu 06:23:05 55.9570 37.0880 284° West 255 293 6,400 2,057 Climbing FlightAware ADS-B
Thu 06:23:25 55.9610 37.0460 280° West 259 298 7,200 2,400 Climbing FlightAware ADS-B
Thu 06:23:45 55.9650 37.0030 279° West 263 303 8,000 2,229 Climbing FlightAware ADS-B
Thu 06:24:00 55.9680 36.9720 280° West 268 308 8,500 2,229 Climbing FlightAware ADS-B
Thu 06:24:20 55.9720 36.9270 279° West 270 311 9,300 2,400 Climbing FlightAware ADS-B
Thu 06:24:55 55.9790 36.8500 279° West 277 319 10,700 1,835 Climbing FlightAware ADS-B
Thu 06:25:45 55.9790 36.7300 270° West 307 353 11,900 1,624 Climbing FlightAware ADS-B
Thu 06:26:20 55.9720 36.6380 262° West 321 369 13,000 1,971 Climbing FlightAware ADS-B
Thu 06:26:55 55.9660 36.5460 263° West 330 380 14,200 1,971 Climbing FlightAware ADS-B
Thu 06:27:30 55.9590 36.4490 263° West 341 392 15,300 1,800 Climbing FlightAware ADS-B
Thu 06:28:05 55.9510 36.3500 262° West 352 405 16,300 1,800 Climbing FlightAware ADS-B
Thu 06:28:40 55.9440 36.2480 263° West 361 415 17,400 1,859 Climbing FlightAware ADS-B
Thu 06:29:16 55.9360 36.1440 262° West 369 425 18,500 1,800 Climbing FlightAware ADS-B
Thu 06:29:50 55.9280 36.0400 262° West 375 432 19,500 1,739 Climbing FlightAware ADS-B
Thu 06:30:25 55.9200 35.9300 263° West 380 437 20,500 1,800 Climbing FlightAware ADS-B
Thu 06:31:00 55.9110 35.8240 261° West 383 441 21,600 1,800 Climbing FlightAware ADS-B
Thu 06:31:35 55.9030 35.7130 263° West 385 443 22,600 1,714 Climbing FlightAware ADS-B
Thu 06:32:10 55.8940 35.6020 262° West 386 444 23,600 1,606 Climbing FlightAware ADS-B
Thu 06:32:46 55.8850 35.4940 262° West 389 448 24,500 1,543 Climbing FlightAware ADS-B
Thu 06:33:20 55.8760 35.3790 262° West 391 450 25,400 1,304 Climbing FlightAware ADS-B
Thu 06:33:55 55.8670 35.2710 262° West 397 457 26,000 1,114 Climbing FlightAware ADS-B
Thu 06:34:30 55.8580 35.1550 262° West 402 463 26,700 1,200 Climbing FlightAware ADS-B
Thu 06:35:05 55.8480 35.0390 261° West 407 468 27,400 1,114 Climbing FlightAware ADS-B
Thu 06:35:40 55.8390 34.9210 262° West 412 474 28,000 500 Climbing FlightAware ADS-B
Thu 06:36:17 55.8340 34.8030 266° West 433 498 28,000 375 Level FlightAware ADS-B
Thu 06:37:00 55.8380 34.6380 273° West 446 513 28,500 882 Climbing FlightAware ADS-B
Thu 06:37:25 55.8450 34.5490 278° West 451 519 29,000 1,100 Climbing FlightAware ADS-B
Thu 06:38:00 55.8640 34.4240 285° West 453 521 29,600 1,114 Climbing FlightAware ADS-B
Thu 06:38:35 55.8830 34.2950 285° West 451 519 30,300 1,200 Climbing FlightAware ADS-B
Thu 06:39:10 55.9010 34.1720 285° West 449 517 31,000 1,114 Climbing FlightAware ADS-B
Thu 06:39:45 55.9190 34.0480 285° West 448 516 31,600 1,029 Climbing FlightAware ADS-B
Thu 06:40:20 55.9360 33.9230 284° West 447 514 32,200 1,286 Climbing FlightAware ADS-B
Thu 06:40:55 55.9540 33.7970 284° West 440 506 33,100 1,457 Climbing FlightAware ADS-B
Thu 06:41:30 55.9710 33.6760 284° West 431 496 33,900 1,286 Climbing FlightAware ADS-B
Thu 06:42:05 55.9870 33.5600 284° West 424 488 34,600 1,114 Climbing FlightAware ADS-B
Thu 06:42:40 56.0040 33.4380 284° West 421 484 35,200 857 Climbing FlightAware ADS-B
Thu 06:43:15 56.0200 33.3210 284° West 419 482 35,600 686 Climbing FlightAware ADS-B
Thu 06:43:50 56.0360 33.2070 284° West 418 481 36,000 343 Climbing FlightAware ADS-B
Thu 06:44:25 56.0520 33.0860 283° West 423 487 36,000  Level FlightAware ADS-B
Thu 06:45:00 56.0680 32.9660 283° West 427 491 36,000  Level FlightAware ADS-B
Thu 06:45:35 56.0850 32.8450 284° West 427 491 36,000  Level FlightAware ADS-B
Thu 06:46:10 56.1000 32.7250 283° West 425 489 36,000  Level FlightAware ADS-B
Thu 06:46:45 56.1160 32.6070 284° West 425 489 36,000  Level FlightAware ADS-B
Thu 06:47:21 56.1310 32.4870 283° West 424 488 36,000  Level FlightAware ADS-B
Thu 06:47:55 56.1470 32.3660 283° West 426 490 36,000  Level FlightAware ADS-B
Thu 06:48:30 56.1620 32.2470 283° West 430 495 36,000  Level FlightAware ADS-B
Thu 06:49:05 56.1850 32.1270 289° West 437 503 36,000  Level FlightAware ADS-B
Thu 06:49:40 56.2160 32.0130 296° West 445 512 36,000  Level FlightAware ADS-B
Thu 06:50:15 56.2550 31.9030 303° West 452 520 36,000  Level FlightAware ADS-B
Thu 06:50:50 56.2970 31.7930 305° West 452 520 36,000  Level FlightAware ADS-B
Thu 06:51:25 56.3360 31.6860 303° West 452 520 36,000  Level FlightAware ADS-B
Thu 06:52:10 56.3830 31.5530 303° West 454 522 36,000  Level FlightAware ADS-B
Thu 06:52:46 56.4180 31.4560 303° West 454 522 36,000  Level FlightAware ADS-B
Thu 06:53:23 56.4540 31.3560 303° West 454 522 36,000  Level FlightAware ADS-B
Thu 06:53:59 56.4890 31.2580 303° West 454 522 36,000  Level FlightAware ADS-B
Thu 06:54:33 56.5220 31.1660 303° West 454 522 36,000  Level FlightAware ADS-B
Thu 06:55:10 56.5940 30.9820 305° West 464 534 36,000  Level FlightAware ADS-B
Thu 06:56:00 56.6680 30.8270 311° West 463 533 36,000  Level FlightAware ADS-B
Thu 06:56:39 56.7210 30.7120 310° West 460 529 36,000  Level FlightAware ADS-B
Thu 06:57:15 56.7610 30.6010 303° West 458 527 36,000  Level FlightAware ADS-B
Thu 06:57:47 56.8000 30.5000 305° West 459 528 36,000  Level FlightAware ADS-B
Thu 06:58:24 56.8450 30.3800 304° West 458 527 36,000  Level FlightAware ADS-B
Thu 06:59:00 56.8880 30.2630 304° West 457 526 36,000  Level FlightAware ADS-B
Thu 06:59:35 56.9260 30.1580 304° West 456 525 36,000  Level FlightAware ADS-B
Thu 07:00:11 56.9650 30.0540 305° West 457 526 36,000  Level FlightAware ADS-B
Thu 07:00:45 57.0090 29.9320 304° West 457 526 36,000  Level FlightAware ADS-B
Thu 07:01:20 57.0480 29.8230 303° West 457 526 36,000  Level FlightAware ADS-B
Thu 07:01:57 57.0870 29.7150 304° West 457 526 36,000  Level FlightAware ADS-B
Thu 07:02:27 57.1320 29.5900 304° West 457 526 36,000  Level FlightAware ADS-B
Thu 07:03:02 57.1680 29.4880 303° West 452 520 36,000  Level FlightAware ADS-B
Thu 07:03:41 57.2170 29.3510 303° West 455 524 36,000  Level FlightAware ADS-B
Thu 07:04:16 57.2560 29.2390 303° West 455 524 36,000  Level FlightAware ADS-B
Thu 07:04:53 57.2990 29.1170 303° West 456 525 36,000  Level FlightAware ADS-B
Thu 07:05:28 57.3390 29.0050 304° West 456 525 36,000  Level FlightAware ADS-B
Thu 07:06:02 57.3780 28.8920 303° West 454 522 36,000  Level FlightAware ADS-B
Thu 07:06:36 57.4170 28.7800 303° West 453 521 36,000  Level FlightAware ADS-B
Thu 07:07:13 57.4590 28.6580 303° West 454 522 36,000  Level FlightAware ADS-B
Thu 07:07:46 57.4950 28.5520 302° West 453 521 36,000  Level FlightAware ADS-B
Thu 07:08:20 57.5330 28.4420 303° West 453 521 36,000  Level FlightAware ADS-B
Thu 07:08:58 57.5760 28.3160 303° West 453 521 36,000  Level FlightAware ADS-B
Thu 07:09:33 57.6150 28.2020 303° West 454 522 36,000  Level FlightAware ADS-B
Thu 07:10:07 57.6510 28.0930 302° West 453 521 36,000  Level FlightAware ADS-B
Thu 07:10:43 57.6930 27.9690 302° West 454 522 36,000  Level FlightAware ADS-B
Thu 07:11:15 57.7290 27.8630 302° West 455 524 36,000  Level FlightAware ADS-B
Thu 07:11:40 57.7570 27.7790 302° West 454 522 36,000  Level FlightAware ADS-B
Thu 07:12:36 57.8180 27.5950 302° West 449 517 36,000  Level FlightAware ADS-B
Thu 07:13:12 57.8480 27.4760 295° West 442 509 36,000  Level FlightAware ADS-B
Thu 07:13:53 57.8780 27.3240 290° West 442 509 36,000  Level FlightAware ADS-B
Thu 07:14:33 57.9070 27.1850 291° West 440 506 36,000  Level FlightAware ADS-B
Thu 07:15:08 57.9330 27.0540 291° West 443 510 36,000  Level FlightAware ADS-B
Thu 07:15:44 57.9590 26.9220 290° West 446 513 36,000  Level FlightAware ADS-B
Thu 07:16:20 57.9840 26.7970 291° West 447 514 36,000  Level FlightAware ADS-B
Thu 07:16:54 58.0090 26.6690 290° West 446 513 36,000  Level FlightAware ADS-B
Thu 07:17:32 58.0370 26.5260 290° West 448 516 36,000  Level FlightAware ADS-B
Thu 07:18:07 58.0610 26.4030 290° West 448 516 36,000  Level FlightAware ADS-B
Thu 07:18:40 58.0840 26.2850 290° West 448 516 36,000  Level FlightAware ADS-B
Thu 07:19:16 58.1110 26.1460 290° West 448 516 36,000  Level FlightAware ADS-B
Thu 07:19:52 58.1350 26.0190 290° West 448 516 36,000  Level FlightAware ADS-B
Thu 07:20:28 58.1610 25.8830 290° West 448 516 36,000  Level FlightAware ADS-B
Thu 07:21:00 58.1840 25.7630 290° West 448 516 36,000  Level FlightAware ADS-B
Thu 07:21:36 58.2080 25.6330 289° West 450 518 36,000  Level FlightAware ADS-B
Thu 07:22:12 58.2330 25.4980 289° West 450 518 36,000  Level FlightAware ADS-B
Thu 07:22:44 58.2550 25.3780 289° West 450 518 36,000  Level FlightAware ADS-B
Thu 07:23:18 58.2780 25.2510 289° West 450 518 36,000  Level FlightAware ADS-B
Thu 07:23:56 58.3040 25.1120 290° West 448 516 36,000  Level FlightAware ADS-B
Thu 07:24:33 58.3290 24.9740 289° West 446 513 36,000  Level FlightAware ADS-B
Thu 07:25:04 58.3490 24.8610 289° West 446 513 36,000  Level FlightAware ADS-B
Thu 07:25:40 58.3730 24.7260 289° West 446 513 36,000  Level FlightAware ADS-B
Thu 07:26:16 58.3960 24.5940 288° West 446 513 36,000  Level FlightAware ADS-B
Thu 07:26:44 58.4150 24.4860 289° West 447 514 36,000  Level FlightAware ADS-B
Thu 07:27:20 58.4370 24.3530 288° West 446 513 36,000  Level FlightAware ADS-B
Thu 07:27:56 58.4570 24.2170 286° West 446 513 36,000  Level FlightAware ADS-B
Thu 07:28:29 58.4760 24.0920 286° West 447 514 36,000  Level FlightAware ADS-B
Thu 07:29:04 58.4950 23.9620 286° West 446 513 36,000  Level FlightAware ADS-B
Thu 07:29:40 58.5160 23.8200 286° West 446 513 36,000  Level FlightAware ADS-B
Thu 07:30:14 58.5330 23.7020 285° West 444 511 36,000  Level FlightAware ADS-B
Thu 07:30:50 58.5550 23.5570 286° West 445 512 36,000  Level FlightAware ADS-B
Thu 07:31:26 58.5740 23.4220 285° West 446 513 36,000  Level FlightAware ADS-B
Thu 07:31:56 58.5900 23.3090 285° West 447 514 36,000  Level FlightAware ADS-B
Thu 07:32:34 58.6110 23.1630 285° West 446 513 36,000  Level FlightAware ADS-B
Thu 07:33:10 58.6300 23.0280 285° West 445 512 36,000  Level FlightAware ADS-B
Thu 07:33:46 58.6500 22.8880 285° West 444 511 36,000  Level FlightAware ADS-B
Thu 07:34:20 58.6690 22.7550 285° West 444 511 36,000  Level FlightAware ADS-B
Thu 07:34:54 58.6860 22.6320 285° West 444 511 36,000  Level FlightAware ADS-B
Thu 07:35:32 58.7050 22.4860 284° West 442 509 36,000  Level FlightAware ADS-B
Thu 07:36:04 58.7220 22.3660 285° West 441 507 36,000  Level FlightAware ADS-B
Thu 07:36:40 58.7400 22.2320 285° West 440 506 36,000  Level FlightAware ADS-B
Thu 07:37:16 58.7580 22.0920 284° West 441 507 36,000  Level FlightAware ADS-B
Thu 07:37:49 58.7750 21.9680 285° West 440 506 36,000  Level FlightAware ADS-B
Thu 07:38:26 58.7920 21.8320 284° West 439 505 36,000  Level FlightAware ADS-B
Thu 07:39:02 58.8110 21.6870 284° West 437 503 36,000  Level FlightAware ADS-B
Thu 07:39:34 58.8260 21.5720 284° West 436 502 36,000  Level FlightAware ADS-B
Thu 07:40:10 58.8440 21.4350 284° West 436 502 36,000  Level FlightAware ADS-B
Thu 07:40:46 58.8670 21.2960 288° West 440 506 36,000  Level FlightAware ADS-B
Thu 07:41:21 58.8890 21.1730 289° West 439 505 36,000  Level FlightAware ADS-B
Thu 07:41:53 58.9100 21.0470 288° West 439 505 36,000  Level FlightAware ADS-B
Thu 07:42:12 58.9185 20.9958 288° West 439 505 36,000  Level FlightAware ADS-B
Thu 07:42:47 58.9434 20.8448 288° West 439 505 36,000  Level FlightAware ADS-B
Thu 07:43:41 58.9760 20.6430 287° West 440 506 36,000  Level FlightAware ADS-B
Thu 07:44:14 58.9960 20.5240 288° West 439 505 36,000  Level FlightAware ADS-B
Thu 07:44:48 59.0160 20.3950 287° West 440 506 36,000  Level FlightAware ADS-B
Thu 07:45:02 59.0250 20.3401 288° West 441 507 36,000  Level FlightAware ADS-B
Thu 07:45:33 59.0434 20.2244 287° West 441 507 36,000  Level FlightAware ADS-B
Thu 07:46:34 59.0800 19.9930 287° West 439 505 36,000  Level FlightAware ADS-B
Thu 07:47:11 59.1010 19.8540 286° West 437 503 36,000  Level FlightAware ADS-B
Thu 07:47:46 59.1220 19.7230 287° West 437 503 36,000  Level FlightAware ADS-B
Thu 07:48:16 59.1379 19.6169 286° West 436 502 36,000  Level FlightAware ADS-B
Thu 07:48:56 59.1614 19.4620 287° West 435 501 36,000  Level FlightAware ADS-B
Thu 07:49:36 59.1839 19.3130 286° West 435 501 36,000  Level FlightAware ADS-B
Thu 07:50:16 59.2066 19.1611 286° West 440 506 36,000  Level FlightAware ADS-B
Thu 07:50:56 59.2291 19.0092 286° West 444 511 36,000  Level FlightAware ADS-B
Thu 07:51:28 59.2427 18.9168 286° West 443 510 36,000  Level FlightAware ADS-B
Thu 07:51:58 59.2641 18.7699 286° West 441 507 36,000  Level FlightAware ADS-B
Thu 07:52:37 59.2832 18.6385 286° West 441 507 36,000  Level FlightAware ADS-B
Thu 07:53:07 59.2991 18.5275 286° West 441 507 36,000  Level FlightAware ADS-B
Thu 07:53:38 59.3183 18.3924 286° West 442 509 36,000  Level FlightAware ADS-B
Thu 07:54:11 59.3370 18.2570 285° West 442 509 36,000  Level FlightAware ADS-B
Thu 07:54:27 59.3457 18.1980 286° West 444 511 36,000  Level FlightAware ADS-B
Thu 07:55:08 59.3675 18.0407 285° West 443 510 36,000  Level FlightAware ADS-B
Thu 07:55:47 59.3872 17.8991 285° West 443 510 36,000  Level FlightAware ADS-B
Thu 07:56:21 59.4062 17.7603 285° West 441 507 36,000  Level FlightAware ADS-B
Thu 07:56:51 59.4221 17.6435 285° West 441 507 36,000  Level FlightAware ADS-B
Thu 07:57:28 59.4416 17.4981 285° West 441 507 36,000  Level FlightAware ADS-B
Thu 07:58:01 59.4582 17.3735 285° West 441 507 36,000  Level FlightAware ADS-B
Thu 07:58:41 59.4788 17.2180 285° West 443 510 36,000  Level FlightAware ADS-B
Thu 07:59:11 59.4931 17.1092 285° West 444 511 36,000  Level FlightAware ADS-B
Thu 07:59:50 59.5135 16.9515 284° West 446 513 36,000  Level FlightAware ADS-B
Thu 08:00:21 59.5288 16.8323 284° West 448 516 36,000  Level FlightAware ADS-B
Thu 08:01:01 59.5497 16.6701 284° West 448 516 36,000  Level FlightAware ADS-B
Thu 08:01:31 59.5650 16.5495 284° West 449 517 36,000  Level FlightAware ADS-B
Thu 08:02:11 59.5842 16.3953 284° West 448 516 36,000  Level FlightAware ADS-B
Thu 08:02:41 59.5993 16.2726 284° West 449 517 36,000  Level FlightAware ADS-B
Thu 08:03:20 59.6181 16.1186 284° West 449 517 36,000  Level FlightAware ADS-B
Thu 08:03:50 59.6324 16.0017 284° West 449 517 36,000  Level FlightAware ADS-B
Thu 08:04:29 59.6513 15.8450 284° West 448 516 36,000  Level FlightAware ADS-B
Thu 08:05:13 59.6720 15.6710 283° West 446 513 36,000  Level FlightAware ADS-B
Thu 08:05:50 59.6890 15.5240 283° West 446 513 36,000  Level FlightAware ADS-B
Thu 08:06:25 59.7050 15.3860 283° West 446 513 36,000  Level FlightAware ADS-B
Thu 08:07:01 59.7230 15.2400 284° West 448 516 36,000  Level FlightAware ADS-B
Thu 08:07:37 59.7450 15.1010 287° West 450 518 36,000  Level FlightAware ADS-B
Thu 08:08:09 59.7650 14.9780 288° West 452 520 36,000  Level FlightAware ADS-B
Thu 08:08:46 59.7890 14.8310 288° West 454 522 36,000  Level FlightAware ADS-B
Thu 08:09:22 59.8110 14.6860 287° West 455 524 36,000  Level FlightAware ADS-B
Thu 08:09:57 59.8330 14.5470 288° West 456 525 36,000  Level FlightAware ADS-B
Thu 08:10:29 59.8530 14.4190 287° West 456 525 36,000  Level FlightAware ADS-B
Thu 08:11:34 59.8870 14.1960 287° West 455 524 36,000  Level FlightAware ADS-B
Thu 08:12:05 59.9110 14.0380 287° West 454 522 36,000  Level FlightAware ADS-B
Thu 08:12:43 59.9330 13.8870 286° West 454 522 36,000  Level FlightAware ADS-B
Thu 08:13:18 59.9540 13.7490 287° West 454 522 36,000  Level FlightAware ADS-B
Thu 08:13:53 59.9760 13.6030 287° West 455 524 36,000  Level FlightAware ADS-B
Thu 08:14:28 59.9950 13.4710 286° West 457 526 36,000  Level FlightAware ADS-B
Thu 08:15:02 60.0160 13.3260 286° West 457 526 36,000  Level FlightAware ADS-B
Thu 08:15:37 60.0360 13.1880 286° West 459 528 36,000  Level FlightAware ADS-B
Thu 08:16:13 60.0560 13.0500 286° West 460 529 36,000  Level FlightAware ADS-B
Thu 08:16:49 60.0780 12.8960 286° West 462 532 36,000  Level FlightAware ADS-B
Thu 08:17:25 60.1000 12.7390 286° West 464 534 36,000  Level FlightAware ADS-B
Thu 08:17:57 60.1180 12.6050 285° West 464 534 36,000  Level FlightAware ADS-B
Thu 08:18:35 60.1380 12.4630 286° West 463 533 36,000  Level FlightAware ADS-B
Thu 08:19:03 60.1550 12.3370 285° West 462 532 36,000  Level FlightAware ADS-B
Thu 08:19:44 60.1780 12.1700 286° West 461 531 36,000  Level FlightAware ADS-B
Thu 08:20:16 60.1960 12.0320 285° West 461 531 36,000  Level FlightAware ADS-B
Thu 08:20:50 60.2140 11.9000 285° West 461 531 36,000  Level FlightAware ADS-B
Thu 08:21:26 60.2320 11.7590 284° West 461 531 36,000  Level FlightAware ADS-B
Thu 08:22:00 60.2520 11.6070 285° West 462 532 36,000  Level FlightAware ADS-B
Thu 08:22:38 60.2730 11.4490 285° West 463 533 36,000  Level FlightAware ADS-B
Thu 08:23:10 60.2900 11.3140 284° West 463 533 36,000  Level FlightAware ADS-B
Thu 08:23:48 60.3100 11.1580 285° West 464 534 36,000  Level FlightAware ADS-B
Thu 08:24:17 60.3250 11.0340 284° West 464 534 36,000  Level FlightAware ADS-B
Thu 08:24:57 60.3460 10.8630 284° West 466 536 36,000  Level FlightAware ADS-B
Thu 08:25:33 60.3650 10.7120 284° West 467 537 36,000  Level FlightAware ADS-B
Thu 08:26:07 60.3820 10.5710 284° West 469 540 36,000  Level FlightAware ADS-B
Thu 08:26:41 60.4000 10.4250 284° West 467 537 36,000  Level FlightAware ADS-B
Thu 08:27:19 60.4190 10.2600 283° West 463 533 36,000  Level FlightAware ADS-B
Thu 08:27:51 60.4350 10.1310 284° West 463 533 36,000  Level FlightAware ADS-B
Thu 08:28:27 60.4520 9.9830 283° West 462 532 36,000  Level FlightAware ADS-B
Thu 08:29:03 60.4700 9.8260 283° West 465 535 36,000  Level FlightAware ADS-B
Thu 08:29:39 60.4880 9.6720 283° West 466 536 36,000  Level FlightAware ADS-B
Thu 08:30:11 60.5030 9.5400 283° West 465 535 36,000  Level FlightAware ADS-B
Thu 08:30:48 60.5200 9.3850 283° West 464 534 36,000  Level FlightAware ADS-B
Thu 08:31:24 60.5370 9.2320 283° West 463 533 36,000  Level FlightAware ADS-B
Thu 08:32:00 60.5530 9.0810 282° West 462 532 36,000  Level FlightAware ADS-B
Thu 08:32:32 60.5680 8.9460 283° West 462 532 36,000  Level FlightAware ADS-B
Thu 08:33:08 60.5850 8.7920 283° West 462 532 36,000  Level FlightAware ADS-B
Thu 08:33:43 60.6000 8.6410 282° West 464 534 36,000  Level FlightAware ADS-B
Thu 08:34:20 60.6160 8.4870 282° West 463 533 36,000  Level FlightAware ADS-B
Thu 08:34:53 60.6310 8.3490 283° West 465 535 36,000  Level FlightAware ADS-B
Thu 08:35:27 60.6460 8.1980 282° West 466 536 36,000  Level FlightAware ADS-B
Thu 08:36:01 60.6620 8.0480 282° West 469 540 36,000  Level FlightAware ADS-B
Thu 08:36:39 60.6770 7.8930 281° West 469 540 36,000  Level FlightAware ADS-B
Thu 08:37:13 60.6920 7.7380 281° West 468 539 36,000  Level FlightAware ADS-B
Thu 08:37:50 60.7070 7.5800 281° West 472 543 36,000  Level FlightAware ADS-B
Thu 08:38:23 60.7210 7.4330 281° West 472 543 36,000  Level FlightAware ADS-B
Thu 08:39:00 60.7370 7.2730 282° West 475 547 36,000  Level FlightAware ADS-B
Thu 08:39:32 60.7500 7.1340 281° West 475 547 36,000  Level FlightAware ADS-B
Thu 08:40:07 60.7640 6.9800 281° West 474 545 36,000  Level FlightAware ADS-B
Thu 08:40:43 60.7790 6.8180 281° West 474 545 36,000  Level FlightAware ADS-B
Thu 08:41:20 60.7930 6.6550 280° West 476 548 36,000  Level FlightAware ADS-B
Thu 08:41:51 60.8050 6.5210 280° West 476 548 36,000  Level FlightAware ADS-B
Thu 08:42:28 60.8200 6.3540 281° West 478 550 36,000  Level FlightAware ADS-B
Thu 08:43:05 60.8340 6.1910 280° West 481 554 36,000  Level FlightAware ADS-B
Thu 08:43:37 60.8460 6.0440 280° West 483 556 36,000  Level FlightAware ADS-B
Thu 08:44:13 60.8590 5.8870 280° West 482 555 36,000  Level FlightAware ADS-B
Thu 08:44:46 60.8720 5.7360 280° West 481 554 36,000  Level FlightAware ADS-B
Thu 08:45:23 60.8850 5.5690 279° West 482 555 36,000  Level FlightAware ADS-B
Thu 08:45:57 60.8980 5.4140 280° West 482 555 36,000  Level FlightAware ADS-B
Thu 08:46:30 60.9090 5.2670 279° West 482 555 36,000  Level FlightAware ADS-B
Thu 08:47:07 60.9220 5.1010 279° West 479 551 36,000  Level FlightAware ADS-B
Thu 08:47:43 60.9340 4.9410 279° West 477 549 36,000  Level FlightAware ADS-B
Thu 08:48:16 60.9460 4.7900 279° West 475 547 36,000  Level FlightAware ADS-B
Thu 08:48:54 60.9580 4.6270 279° West 471 542 36,000  Level FlightAware ADS-B
Thu 08:49:27 60.9680 4.4840 278° West 473 544 36,000  Level FlightAware ADS-B
Thu 08:50:03 60.9800 4.3200 279° West 472 543 36,000  Level FlightAware ADS-B
Thu 08:50:39 60.9910 4.1600 278° West 471 542 36,000  Level FlightAware ADS-B
Thu 08:51:13 61.0020 4.0060 278° West 472 543 36,000  Level FlightAware ADS-B
Thu 08:51:44 61.0110 3.8700 278° West 472 543 36,000  Level FlightAware ADS-B
Thu 08:52:23 61.0220 3.7010 278° West 470 541 36,000  Level FlightAware ADS-B
Thu 08:52:57 61.0320 3.5540 278° West 467 537 36,000  Level FlightAware ADS-B
Thu 08:53:34 61.0420 3.3940 277° West 461 531 36,000  Level FlightAware ADS-B
Thu 08:54:09 61.0520 3.2450 278° West 459 528 36,000  Level FlightAware ADS-B
Thu 08:54:41 61.0600 3.1020 277° West 457 526 36,000  Level FlightAware ADS-B
Thu 08:55:17 61.0700 2.9460 278° West 453 521 36,000  Level FlightAware ADS-B
Thu 08:55:52 61.0790 2.7970 277° West 452 520 36,000  Level FlightAware ADS-B
Thu 08:56:27 61.0870 2.6480 276° West 451 519 36,000  Level FlightAware ADS-B
Thu 08:57:03 61.0970 2.4920 278° West 450 518 36,000  Level FlightAware ADS-B
Thu 08:57:38 61.1050 2.3430 276° West 447 514 36,000  Level FlightAware ADS-B
Thu 08:58:11 61.1120 2.2100 276° West 446 513 36,000  Level FlightAware ADS-B
Thu 08:58:49 61.1210 2.0460 277° West 446 513 36,000  Level FlightAware ADS-B
Thu 08:59:25 61.1290 1.8970 276° West 446 513 36,000  Level FlightAware ADS-B
Thu 08:59:59 61.1370 1.7500 276° West 445 512 36,000  Level FlightAware ADS-B
Thu 09:00:32 61.1430 1.6130 275° West 445 512 36,000  Level FlightAware ADS-B
Thu 09:01:08 61.1510 1.4610 276° West 445 512 36,000  Level FlightAware ADS-B
Thu 09:01:45 61.1590 1.3060 276° West 445 512 36,000  Level FlightAware ADS-B
Thu 09:02:16 61.1650 1.1680 275° West 445 512 36,000  Level FlightAware ADS-B
Thu 09:02:50 61.1720 1.0220 276° West 444 511 36,000  Level FlightAware ADS-B
Thu 09:03:29 61.1790 0.8600 275° West 445 512 36,000  Level FlightAware ADS-B
Thu 09:04:01 61.1850 0.7210 275° West 446 513 36,000  Level FlightAware ADS-B
Thu 09:04:37 61.1920 0.5710 276° West 448 516 36,000  Level FlightAware ADS-B
Thu 09:05:14 61.1980 0.4120 275° West 449 517 36,000  Level FlightAware ADS-B
Thu 09:05:46 61.2040 0.2730 275° West 450 518 36,000  Level FlightAware ADS-B
Thu 09:06:21 61.2100 0.1240 275° West 449 517 36,000  Level FlightAware ADS-B
Thu 09:06:59 61.2190 -0.0370 277° West 439 505 36,000  Level FlightAware ADS-B
Thu 09:07:31 61.2340 -0.1680 283° West 432 497 36,000  Level FlightAware ADS-B
Thu 09:08:09 61.2520 -0.3180 284° West 432 497 36,000  Level FlightAware ADS-B
Thu 09:08:41 61.2670 -0.4480 284° West 432 497 36,000  Level FlightAware ADS-B
Thu 09:09:18 61.2840 -0.5990 283° West 432 497 36,000  Level FlightAware ADS-B
Thu 09:09:55 61.3000 -0.7420 283° West 432 497 36,000  Level FlightAware ADS-B
Thu 09:10:27 61.3150 -0.8750 283° West 432 497 36,000  Level FlightAware ADS-B
Thu 09:10:58 61.3280 -0.9980 282° West 431 496 36,000  Level FlightAware ADS-B
Thu 09:11:37 61.3410 -1.1140 283° West 431 496 36,000  Level FlightAware ADS-B
Thu 09:12:14 61.3610 -1.2960 283° West 432 497 36,000  Level FlightAware ADS-B
Thu 09:12:49 61.3770 -1.4460 283° West 433 498 36,000  Level FlightAware ADS-B
Thu 09:13:21 61.3910 -1.5790 282° West 434 499 36,000  Level FlightAware ADS-B
Thu 09:13:58 61.4060 -1.7280 282° West 433 498 36,000  Level FlightAware ADS-B
Thu 09:14:35 61.4220 -1.8810 282° West 432 497 36,000  Level FlightAware ADS-B
Thu 09:15:03 61.4340 -1.9940 283° West 431 496 36,000  Level FlightAware ADS-B
Thu 09:15:42 61.4490 -2.1510 281° West 431 496 36,000  Level FlightAware ADS-B
Thu 09:16:19 61.4640 -2.3010 282° West 431 496 36,000  Level FlightAware ADS-B
Thu 09:17:01 61.4780 -2.4500 281° West 429 494 36,000  Level FlightAware ADS-B
Thu 09:17:35 61.4950 -2.6110 283° West 430 495 36,000  Level FlightAware ADS-B
Thu 09:18:08 61.5080 -2.7460 281° West 430 495 36,000  Level FlightAware ADS-B
Thu 09:18:44 61.5220 -2.8940 281° West 430 495 36,000  Level FlightAware ADS-B
Thu 09:19:20 61.5360 -3.0400 281° West 430 495 36,000  Level FlightAware ADS-B
Thu 09:19:57 61.5490 -3.1870 281° West 429 494 36,000  Level FlightAware ADS-B
Thu 09:20:28 61.5610 -3.3190 281° West 430 495 36,000  Level FlightAware ADS-B
Thu 09:21:04 61.5750 -3.4670 281° West 431 496 36,000  Level FlightAware ADS-B
Thu 09:21:37 61.5860 -3.5960 280° West 432 497 36,000  Level FlightAware ADS-B
Thu 09:22:22 61.6030 -3.7860 281° West 434 499 36,000  Level FlightAware ADS-B
Thu 09:22:58 61.6160 -3.9350 280° West 436 502 36,000  Level FlightAware ADS-B
Thu 09:23:30 61.6280 -4.0680 281° West 436 502 36,000  Level FlightAware ADS-B
Thu 09:24:06 61.6400 -4.2200 280° West 437 503 36,000  Level FlightAware ADS-B
Thu 09:24:40 61.6520 -4.3560 281° West 437 503 36,000  Level FlightAware ADS-B
Thu 09:25:18 61.6650 -4.5210 279° West 437 503 36,000  Level FlightAware ADS-B
Thu 09:25:50 61.6760 -4.6540 280° West 437 503 36,000  Level FlightAware ADS-B
Thu 09:26:24 61.6880 -4.7940 280° West 436 502 36,000  Level FlightAware ADS-B
Thu 09:27:01 61.7000 -4.9490 279° West 436 502 36,000  Level FlightAware ADS-B
Thu 09:27:38 61.7120 -5.1040 279° West 436 502 36,000  Level FlightAware ADS-B
Thu 09:28:11 61.7220 -5.2380 279° West 436 502 36,000  Level FlightAware ADS-B
Thu 09:28:40 61.7310 -5.3590 279° West 437 503 36,000  Level FlightAware ADS-B
Thu 09:29:23 61.7450 -5.5390 279° West 439 505 36,000  Level FlightAware ADS-B
Thu 09:29:55 61.7550 -5.6790 279° West 440 506 36,000  Level FlightAware ADS-B
Thu 09:30:33 61.7670 -5.8400 279° West 438 504 36,000  Level FlightAware ADS-B
Thu 09:31:05 61.7760 -5.9780 278° West 437 503 36,000  Level FlightAware ADS-B
Thu 09:31:39 61.7860 -6.1190 279° West 436 502 36,000  Level FlightAware ADS-B
Thu 09:32:18 61.7970 -6.2780 278° West 436 502 36,000  Level FlightAware ADS-B
Thu 09:32:53 61.8080 -6.4280 279° West 437 503 36,000  Level FlightAware ADS-B
Thu 09:33:25 61.8170 -6.5610 278° West 437 503 36,000  Level FlightAware ADS-B
Thu 09:34:03 61.8270 -6.7230 278° West 435 501 36,000  Level FlightAware ADS-B
Thu 09:34:39 61.8370 -6.8750 278° West 432 497 36,000  Level FlightAware ADS-B
Thu 09:35:09 61.8450 -7.0030 278° West 431 496 36,000  Level FlightAware ADS-B
Thu 09:35:47 61.8550 -7.1580 278° West 429 494 36,000  Level FlightAware ADS-B
Thu 09:36:23 61.8640 -7.3070 277° West 427 491 36,000  Level FlightAware ADS-B
Thu 09:36:55 61.8720 -7.4370 277° West 428 493 36,000  Level FlightAware ADS-B
Thu 09:37:31 61.8810 -7.5890 277° West 428 493 36,000  Level FlightAware ADS-B
Thu 09:38:07 61.8890 -7.7380 277° West 428 493 36,000  Level FlightAware ADS-B
Thu 09:38:39 61.8970 -7.8710 277° West 426 490 36,000  Level FlightAware ADS-B
Thu 09:39:11 61.9050 -8.0050 277° West 425 489 36,000  Level FlightAware ADS-B
Thu 09:39:41 61.9110 -8.1260 276° West 424 488 36,000  Level FlightAware ADS-B
Thu 09:40:20 61.9200 -8.2860 277° West 424 488 36,000  Level FlightAware ADS-B
Thu 09:40:53 61.9270 -8.4200 276° West 424 488 36,000  Level FlightAware ADS-B
Thu 09:41:29 61.9350 -8.5720 276° West 424 488 36,000  Level FlightAware ADS-B
Thu 09:42:06 61.9420 -8.7230 276° West 424 488 36,000  Level FlightAware ADS-B
Thu 09:42:42 61.9490 -8.8660 276° West 423 487 36,000  Level FlightAware ADS-B
Thu 09:43:13 61.9560 -9.0000 276° West 422 486 36,000  Level FlightAware ADS-B
Thu 09:43:50 61.9630 -9.1520 276° West 421 484 36,000  Level FlightAware ADS-B
Thu 09:44:36 61.9710 -9.3220 276° West 420 483 36,000  Level FlightAware ADS-B
Thu 09:45:30 61.9810 -9.5440 276° West 419 482 36,000  Level FlightAware ADS-B
Thu 09:46:09 61.9880 -9.7180 275° West 420 483 36,000  Level FlightAware ADS-B
Thu 09:46:40 61.9940 -9.8490 276° West 420 483 36,000  Level FlightAware ADS-B
Thu 09:47:22 62.0040 -10.0210 277° West 417 480 36,000  Level FlightAware ADS-B
Thu 09:47:54 62.0200 -10.1460 285° West 414 476 36,000  Level FlightAware ADS-B
Thu 09:48:30 62.0400 -10.2850 287° West 414 476 36,000  Level FlightAware ADS-B
Thu 09:49:11 62.0600 -10.4310 286° West 414 476 36,000  Level FlightAware ADS-B
Thu 09:49:48 62.0760 -10.5540 286° West 414 476 36,000  Level FlightAware ADS-B
Thu 09:50:24 62.0920 -10.6750 286° West 414 476 36,000  Level FlightAware ADS-B
Thu 09:51:00 62.1090 -10.7950 287° West 414 476 36,000  Level FlightAware ADS-B
Thu 09:51:35 62.1240 -10.9120 285° West 414 476 36,000  Level FlightAware ADS-B
Thu 09:52:12 62.1410 -11.0360 286° West 414 476 36,000  Level FlightAware ADS-B
Thu 09:52:48 62.1570 -11.1570 286° West 414 476 36,000  Level FlightAware ADS-B
Thu 09:53:24 62.1730 -11.2770 286° West 414 476 36,000  Level FlightAware ADS-B
Thu 09:54:01 62.1900 -11.4010 286° West 414 476 36,000  Level FlightAware ADS-B
Thu 09:54:37 62.2060 -11.5220 286° West 414 476 36,000  Level FlightAware ADS-B
Thu 09:55:14 62.2220 -11.6460 286° West 414 476 36,000  Level FlightAware ADS-B
Thu 09:55:51 62.2390 -11.7710 286° West 414 476 36,000  Level FlightAware ADS-B
Thu 09:56:27 62.2550 -11.8920 286° West 414 476 36,000  Level FlightAware ADS-B
Thu 09:57:03 62.2710 -12.0130 286° West 414 476 36,000  Level FlightAware ADS-B
Thu 09:57:40 62.2880 -12.1370 286° West 414 476 36,000  Level FlightAware ADS-B
Thu 09:58:17 62.3050 -12.2620 286° West 414 476 36,000  Level FlightAware ADS-B
Thu 09:58:54 62.3520 -12.7350 282° West 417 480 36,000  Level FlightAware ADS-B
Thu 09:59:28 62.3700 -12.8810 285° West 419 482 36,000  Level FlightAware ADS-B
Thu 10:00:03 62.3860 -13.0200 284° West 421 484 36,000  Level FlightAware ADS-B
Thu 10:00:40 62.4030 -13.1740 283° West 422 486 36,000  Level FlightAware ADS-B
Thu 10:01:11 62.4170 -13.2980 284° West 422 486 36,000  Level FlightAware ADS-B
Thu 10:01:47 62.4340 -13.4450 284° West 421 484 36,000  Level FlightAware ADS-B
Thu 10:02:23 62.4500 -13.5920 283° West 420 483 36,000  Level FlightAware ADS-B
Thu 10:02:57 62.4650 -13.7300 283° West 421 484 36,000  Level FlightAware ADS-B
Thu 10:03:32 62.4810 -13.8750 283° West 422 486 36,000  Level FlightAware ADS-B
Thu 10:04:05 62.4950 -14.0060 283° West 421 484 36,000  Level FlightAware ADS-B
Thu 10:04:43 62.5110 -14.1580 283° West 421 484 36,000  Level FlightAware ADS-B
Thu 10:05:15 62.5260 -14.2950 283° West 420 483 36,000  Level FlightAware ADS-B
Thu 10:05:53 62.5420 -14.4500 283° West 422 486 36,000  Level FlightAware ADS-B
Thu 10:06:28 62.5570 -14.5960 283° West 422 486 36,000  Level FlightAware ADS-B
Thu 10:07:02 62.5720 -14.7360 283° West 423 487 36,000  Level FlightAware ADS-B
Thu 10:07:37 62.5860 -14.8780 282° West 424 488 36,000  Level FlightAware ADS-B
Thu 10:08:13 62.6010 -15.0280 282° West 425 489 36,000  Level FlightAware ADS-B
Thu 10:08:46 62.6150 -15.1660 282° West 426 490 36,000  Level FlightAware ADS-B
Thu 10:09:23 62.6290 -15.3190 281° West 426 490 36,000  Level FlightAware ADS-B
Thu 10:09:59 62.6440 -15.4700 282° West 427 491 36,000  Level FlightAware ADS-B
Thu 10:10:34 62.6580 -15.6200 282° West 426 490 36,000  Level FlightAware ADS-B
Thu 10:11:33 62.6790 -15.8490 281° West 427 491 36,000  Level FlightAware ADS-B
Thu 10:12:03 62.6920 -15.9830 282° West 426 490 36,000  Level FlightAware ADS-B
Thu 10:12:39 62.7060 -16.1340 281° West 426 490 36,000  Level FlightAware ADS-B
Thu 10:13:15 62.7190 -16.2840 281° West 425 489 36,000  Level FlightAware ADS-B
Thu 10:13:49 62.7330 -16.4370 281° West 425 489 36,000  Level FlightAware ADS-B
Thu 10:14:24 62.7460 -16.5830 281° West 424 488 36,000  Level FlightAware ADS-B
Thu 10:14:59 62.7580 -16.7260 280° West 423 487 36,000  Level FlightAware ADS-B
Thu 10:15:33 62.7710 -16.8710 281° West 422 486 36,000  Level FlightAware ADS-B
Thu 10:16:12 62.7830 -17.0200 280° West 420 483 36,000  Level FlightAware ADS-B
Thu 10:16:44 62.7960 -17.1700 281° West 419 482 36,000  Level FlightAware ADS-B
Thu 10:17:20 62.8080 -17.3180 280° West 419 482 36,000  Level FlightAware ADS-B
Thu 10:17:55 62.8190 -17.4590 280° West 420 483 36,000  Level FlightAware ADS-B
Thu 10:18:30 62.8320 -17.6100 281° West 422 486 36,000  Level FlightAware ADS-B
Thu 10:19:03 62.8420 -17.7460 279° West 423 487 36,000  Level FlightAware ADS-B
Thu 10:19:41 62.8550 -17.9090 280° West 427 491 36,000  Level FlightAware ADS-B
Thu 10:20:14 62.8640 -18.0260 280° West 427 491 36,000  Level FlightAware ADS-B
Thu 10:20:50 62.8770 -18.2020 279° West 429 494 36,000  Level FlightAware ADS-B
Thu 10:21:24 62.8880 -18.3400 280° West 431 496 36,000  Level FlightAware ADS-B
Thu 10:22:00 62.9000 -18.5020 279° West 432 497 36,000  Level FlightAware ADS-B
Thu 10:22:33 62.9100 -18.6410 279° West 431 496 36,000  Level FlightAware ADS-B
Thu 10:23:09 62.9200 -18.7910 278° West 430 495 36,000  Level FlightAware ADS-B
Thu 10:23:45 62.9310 -18.9510 279° West 430 495 36,000  Level FlightAware ADS-B
Thu 10:24:19 62.9410 -19.0930 279° West 431 496 36,000  Level FlightAware ADS-B
Thu 10:24:55 62.9520 -19.2470 279° West 433 498 36,000  Level FlightAware ADS-B
Thu 10:25:31 62.9630 -19.4160 278° West 435 501 36,000  Level FlightAware ADS-B
Thu 10:26:04 62.9720 -19.5500 278° West 435 501 36,000  Level FlightAware ADS-B
Thu 10:26:40 62.9820 -19.7160 278° West 436 502 36,000  Level FlightAware ADS-B
Thu 10:27:17 62.9920 -19.8760 278° West 436 502 36,000  Level FlightAware ADS-B
Thu 10:27:49 63.0010 -20.0190 278° West 436 502 36,000  Level FlightAware ADS-B
Thu 10:28:25 63.0060 -20.1790 274° West 436 502 36,000  Level FlightAware ADS-B
Thu 10:29:01 63.0120 -20.3390 275° West 438 504 36,000  Level FlightAware ADS-B
Thu 10:29:34 63.0160 -20.4800 274° West 440 506 36,000  Level FlightAware ADS-B
Thu 10:30:09 63.0210 -20.6400 274° West 442 509 36,000  Level FlightAware ADS-B
Thu 10:30:46 63.0260 -20.8020 274° West 441 507 36,000  Level FlightAware ADS-B
Thu 10:31:21 63.0310 -20.9640 274° West 440 506 36,000  Level FlightAware ADS-B
Thu 10:31:54 63.0350 -21.1040 274° West 438 504 36,000  Level FlightAware ADS-B
Thu 10:32:30 63.0390 -21.2660 273° West 438 504 36,000  Level FlightAware ADS-B
Thu 10:33:05 63.0440 -21.4250 274° West 436 502 36,000  Level FlightAware ADS-B
Thu 10:33:38 63.0470 -21.5660 273° West 436 502 36,000  Level FlightAware ADS-B
Thu 10:34:17 63.0510 -21.7420 273° West 436 502 36,000  Level FlightAware ADS-B
Thu 10:34:49 63.0540 -21.8860 273° West 435 501 36,000  Level FlightAware ADS-B
Thu 10:35:26 63.0580 -22.0440 273° West 434 499 36,000  Level FlightAware ADS-B
Thu 10:36:01 63.0610 -22.2000 273° West 434 499 36,000  Level FlightAware ADS-B
Thu 10:36:34 63.0640 -22.3420 273° West 434 499 36,000  Level FlightAware ADS-B
Thu 10:37:10 63.0670 -22.5030 272° West 434 499 36,000  Level FlightAware ADS-B
Thu 10:37:42 63.0690 -22.6460 272° West 434 499 36,000  Level FlightAware ADS-B
Thu 10:38:18 63.0720 -22.7990 273° West 434 499 36,000  Level FlightAware ADS-B
Thu 10:38:55 63.0740 -22.9680 272° West 433 498 36,000  Level FlightAware ADS-B
Thu 10:39:30 63.0760 -23.1200 272° West 432 497 36,000  Level FlightAware ADS-B
Thu 10:40:06 63.0780 -23.2710 272° West 433 498 36,000  Level FlightAware ADS-B
Thu 10:40:38 63.0800 -23.4200 272° West 433 498 36,000  Level FlightAware ADS-B
Thu 10:41:16 63.0820 -23.5860 272° West 432 497 36,000  Level FlightAware ADS-B
Thu 10:41:51 63.0830 -23.7430 271° West 431 496 36,000  Level FlightAware ADS-B
Thu 10:42:26 63.0840 -23.8920 271° West 430 495 36,000  Level FlightAware ADS-B
Thu 10:42:59 63.0850 -24.0390 271° West 429 494 36,000  Level FlightAware ADS-B
Thu 10:43:33 63.0860 -24.1810 271° West 429 494 36,000  Level FlightAware ADS-B
Thu 10:44:09 63.0870 -24.3450 271° West 429 494 36,000  Level FlightAware ADS-B
Thu 10:44:41 63.0880 -24.4840 271° West 430 495 36,000  Level FlightAware ADS-B
Thu 10:45:20 63.0880 -24.6520 270° West 431 496 36,000  Level FlightAware ADS-B
Thu 10:45:57 63.0880 -24.8110 270° West 431 496 36,000  Level FlightAware ADS-B
Thu 10:46:31 63.0890 -24.9630 271° West 430 495 36,000  Level FlightAware ADS-B
Thu 10:47:20 63.0890 -25.1730 270° West 430 495 36,000  Level FlightAware ADS-B
Thu 10:47:56 63.0880 -25.3220 269° West 430 495 36,000  Level FlightAware ADS-B
Thu 10:48:28 63.0880 -25.4700 270° West 430 495 36,000  Level FlightAware ADS-B
Thu 10:49:05 63.0870 -25.6280 269° West 430 495 36,000  Level FlightAware ADS-B
Thu 10:49:41 63.0860 -25.7860 269° West 429 494 36,000  Level FlightAware ADS-B
Thu 10:50:12 63.0860 -25.9190 270° West 428 493 36,000  Level FlightAware ADS-B
Thu 10:50:46 63.0850 -26.0670 269° West 428 493 36,000  Level FlightAware ADS-B
Thu 10:51:22 63.0830 -26.2280 268° West 428 493 36,000  Level FlightAware ADS-B
Thu 10:51:55 63.0820 -26.3710 269° West 428 493 36,000  Level FlightAware ADS-B
Thu 10:52:34 63.0800 -26.5430 269° West 427 491 36,000  Level FlightAware ADS-B
Thu 10:53:07 63.0790 -26.6840 269° West 426 490 36,000 87 Level FlightAware ADS-B
Thu 10:53:43 63.0770 -26.8440 268° West 426 490 36,100 730 Climbing FlightAware ADS-B
Thu 10:54:21 63.0740 -27.0080 268° West 420 483 36,900 771 Climbing FlightAware ADS-B
Thu 10:54:53 63.0720 -27.1470 268° West 421 484 37,000 90 Climbing FlightAware ADS-B
Thu 10:55:28 63.0700 -27.2920 268° West 420 483 37,000  Level FlightAware ADS-B
Thu 10:56:06 63.0670 -27.4550 268° West 418 481 37,000  Level FlightAware ADS-B
Thu 10:56:38 63.0650 -27.5910 268° West 417 480 37,000  Level FlightAware ADS-B
Thu 10:57:13 63.0620 -27.7410 268° West 417 480 37,000  Level FlightAware ADS-B
Thu 10:58:09 63.0570 -27.9730 267° West 417 480 37,000  Level FlightAware ADS-B
Thu 10:58:44 63.0540 -28.1270 268° West 417 480 37,000  Level FlightAware ADS-B
Thu 10:59:20 63.0510 -28.2780 268° West 417 480 37,000  Level FlightAware ADS-B
Thu 10:59:53 63.0470 -28.4130 266° West 417 480 37,000  Level FlightAware ADS-B
Thu 11:00:27 63.0440 -28.5510 267° West 415 478 37,000  Level FlightAware ADS-B
Thu 11:01:05 63.0400 -28.7150 267° West 414 476 37,000  Level FlightAware ADS-B
Thu 11:01:41 63.0360 -28.8650 267° West 413 475 37,000  Level FlightAware ADS-B
Thu 11:02:13 63.0320 -28.9990 266° West 413 475 37,000  Level FlightAware ADS-B
Thu 11:02:49 63.0280 -29.1430 267° West 412 474 37,000  Level FlightAware ADS-B
Thu 11:03:26 63.0230 -29.3060 266° West 413 475 37,000  Level FlightAware ADS-B
Thu 11:03:58 63.0190 -29.4470 266° West 415 478 37,000  Level FlightAware ADS-B
Thu 11:04:53 63.0120 -29.6450 266° West 415 478 37,000  Level FlightAware ADS-B
Thu 11:05:32 63.0060 -29.8400 266° West 416 479 37,000  Level FlightAware ADS-B
Thu 11:06:02 63.0020 -29.9630 266° West 416 479 37,000  Level FlightAware ADS-B
Thu 11:06:36 63.0040 -30.1080 272° West 424 488 37,000  Level FlightAware ADS-B
Thu 11:07:14 63.0100 -30.2750 275° West 422 486 37,000  Level FlightAware ADS-B
Thu 11:07:53 63.0150 -30.4380 274° West 422 486 37,000  Level FlightAware ADS-B
Thu 11:08:26 63.0190 -30.5810 274° West 421 484 37,000  Level FlightAware ADS-B
Thu 11:09:01 63.0240 -30.7120 275° West 422 486 37,000  Level FlightAware ADS-B
Thu 11:09:37 63.0280 -30.8440 274° West 422 486 37,000  Level FlightAware ADS-B
Thu 11:10:13 63.0320 -30.9750 274° West 422 486 37,000  Level FlightAware ADS-B
Thu 11:10:50 63.0360 -31.1100 274° West 422 486 37,000  Level FlightAware ADS-B
Thu 11:11:29 63.0420 -31.3600 273° West 422 486 37,000  Level FlightAware ADS-B
Thu 11:11:41 63.0430 -31.4050 273° West 422 486 37,000  Level FlightAware ADS-B
Thu 11:12:40 63.0480 -31.6190 273° West 423 487 37,000  Level FlightAware ADS-B
Thu 11:13:32 63.0530 -31.8690 273° West 424 488 37,000  Level FlightAware ADS-B
Thu 11:14:21 63.0580 -32.0780 273° West 425 489 37,000  Level FlightAware ADS-B
Thu 11:14:57 63.0600 -32.2110 272° West 425 489 37,000  Level FlightAware ADS-B
Thu 11:15:33 63.0620 -32.3440 272° West 425 489 37,000  Level FlightAware ADS-B
Thu 11:16:09 63.0640 -32.4770 272° West 425 489 37,000  Level FlightAware ADS-B
Thu 11:16:46 63.0660 -32.6130 272° West 425 489 37,000  Level FlightAware ADS-B
Thu 11:17:25 63.0690 -32.7570 273° West 425 489 37,000  Level FlightAware ADS-B
Thu 11:18:01 63.0710 -32.8900 272° West 425 489 37,000  Level FlightAware ADS-B
Thu 11:18:37 63.0730 -33.0220 272° West 425 489 37,000  Level FlightAware ADS-B
Thu 11:19:13 63.0750 -33.1550 272° West 425 489 37,000  Level FlightAware ADS-B
Thu 11:19:50 63.0770 -33.2920 272° West 425 489 37,000  Level FlightAware ADS-B
Thu 11:20:26 63.0790 -33.4240 272° West 425 489 37,000  Level FlightAware ADS-B
Thu 11:21:02 63.0810 -33.5570 272° West 425 489 37,000  Level FlightAware ADS-B
Thu 11:21:38 63.0830 -33.6900 272° West 425 489 37,000  Level FlightAware ADS-B
Thu 11:22:13 63.0850 -33.8190 272° West 425 489 37,000  Level FlightAware ADS-B
Thu 11:22:49 63.0870 -33.9520 272° West 425 489 37,000  Level FlightAware ADS-B
Thu 11:23:25 63.0890 -34.0850 272° West 425 489 37,000  Level FlightAware ADS-B
Thu 11:26:00 62.9426 -34.6797 242° Southwest  Level Estimated
Thu 11:27:00 62.8852 -34.9083 241° Southwest  Level Estimated
Thu 11:28:00 62.8275 -35.1360 241° Southwest  Level Estimated
Thu 11:29:00 62.7694 -35.3628 241° Southwest  Level Estimated
Thu 11:30:00 62.7109 -35.5888 241° Southwest  Level Estimated
Thu 11:31:00 62.6521 -35.8138 240° Southwest  Level Estimated
Thu 11:32:00 62.5929 -36.0379 240° Southwest  Level Estimated
Thu 11:33:00 62.5334 -36.2612 240° Southwest  Level Estimated
Thu 11:34:00 62.4735 -36.4835 240° Southwest  Level Estimated
Thu 11:35:00 62.4133 -36.7049 240° Southwest  Level Estimated
Thu 11:36:00 62.3527 -36.9255 239° Southwest  Level Estimated
Thu 11:37:00 62.2917 -37.1452 239° Southwest  Level Estimated
Thu 11:38:00 62.2305 -37.3640 239° Southwest  Level Estimated
Thu 11:39:00 62.1688 -37.5818 239° Southwest  Level Estimated
Thu 11:40:00 62.1069 -37.7989 239° Southwest  Level Estimated
Thu 11:41:00 62.0446 -38.0150 238° Southwest  Level Estimated
Thu 11:42:00 61.9819 -38.2302 238° Southwest  Level Estimated
Thu 11:43:00 61.9190 -38.4445 238° Southwest  Level Estimated
Thu 11:44:00 61.8557 -38.6580 238° Southwest  Level Estimated
Thu 11:45:00 61.7920 -38.8706 238° Southwest  Level Estimated
Thu 11:46:00 61.7281 -39.0823 238° Southwest  Level Estimated
Thu 11:47:00 61.6638 -39.2931 237° Southwest  Level Estimated
Thu 11:48:00 61.5992 -39.5030 237° Southwest  Level Estimated
Thu 11:49:00 61.5342 -39.7121 237° Southwest  Level Estimated
Thu 11:50:00 61.4690 -39.9203 237° Southwest  Level Estimated
Thu 11:51:00 61.4034 -40.1276 237° Southwest  Level Estimated
Thu 11:52:00 61.3375 -40.3340 236° Southwest  Level Estimated
Thu 11:53:00 61.2714 -40.5396 236° Southwest  Level Estimated
Thu 11:54:00 61.2048 -40.7443 236° Southwest  Level Estimated
Thu 11:55:00 61.1380 -40.9482 236° Southwest  Level Estimated
Thu 11:56:00 61.0709 -41.1512 236° Southwest  Level Estimated
Thu 11:57:00 61.0035 -41.3533 236° Southwest  Level Estimated
Thu 11:58:00 60.9358 -41.5545 235° Southwest  Level Estimated
Thu 11:59:00 60.8678 -41.7550 235° Southwest  Level Estimated
Thu 12:00:00 60.7995 -41.9545 235° Southwest  Level Estimated
Thu 12:01:00 60.7309 -42.1532 235° Southwest  Level Estimated
Thu 12:02:00 60.6619 -42.3511 235° Southwest  Level Estimated
Thu 12:03:00 60.5928 -42.5481 234° Southwest  Level Estimated
Thu 12:04:00 60.5233 -42.7442 234° Southwest  Level Estimated
Thu 12:05:00 60.4535 -42.9395 234° Southwest  Level Estimated
Thu 12:06:00 60.3835 -43.1340 234° Southwest  Level Estimated
Thu 12:07:00 60.3131 -43.3277 234° Southwest  Level Estimated
Thu 12:08:00 60.2425 -43.5205 234° Southwest  Level Estimated
Thu 12:09:00 60.1716 -43.7125 233° Southwest  Level Estimated
Thu 12:10:00 60.1005 -43.9036 233° Southwest  Level Estimated
Thu 12:11:00 60.0290 -44.0939 233° Southwest  Level Estimated
Thu 12:12:00 59.9573 -44.2834 233° Southwest  Level Estimated
Thu 12:13:00 59.8853 -44.4721 233° Southwest  Level Estimated
Thu 12:14:00 59.8131 -44.6600 233° Southwest  Level Estimated
Thu 12:15:00 59.7406 -44.8470 232° Southwest  Level Estimated
Thu 12:16:00 59.6678 -45.0333 232° Southwest  Level Estimated
Thu 12:17:00 59.5947 -45.2187 232° Southwest  Level Estimated
Thu 12:18:00 59.5214 -45.4033 232° Southwest  Level Estimated
Thu 12:19:00 59.4478 -45.5872 232° Southwest  Level Estimated
Thu 12:19:38 63.0150 -49.5780 232° Southwest 458 527 37,000  Level FlightAware ADS-B
Thu 12:20:10 63.0100 -49.7250 266° West 458 527 37,000  Level FlightAware ADS-B
Thu 12:20:42 63.0050 -49.8730 266° West 457 526 37,000  Level FlightAware ADS-B
Thu 12:21:15 62.9930 -50.0250 260° West 453 521 37,000  Level FlightAware ADS-B
Thu 12:21:55 62.9700 -50.1940 253° West 451 519 37,000  Level FlightAware ADS-B
Thu 12:22:30 62.9460 -50.3500 251° West 451 519 37,000  Level FlightAware ADS-B
Thu 12:23:04 62.9230 -50.4980 251° West 451 519 37,000  Level FlightAware ADS-B
Thu 12:23:39 62.8990 -50.6490 251° West 450 518 37,000  Level FlightAware ADS-B
Thu 12:24:14 62.8760 -50.7950 251° West 452 520 37,000  Level FlightAware ADS-B
Thu 12:24:51 62.8500 -50.9600 251° West 453 521 37,000  Level FlightAware ADS-B
Thu 12:25:27 62.8250 -51.1130 250° West 455 524 37,000  Level FlightAware ADS-B
Thu 12:26:02 62.8000 -51.2650 250° West 456 525 37,000  Level FlightAware ADS-B
Thu 12:26:37 62.7750 -51.4180 250° West 456 525 37,000  Level FlightAware ADS-B
Thu 12:27:08 62.7540 -51.5450 250° West 456 525 37,000  Level FlightAware ADS-B
Thu 12:27:46 62.7250 -51.7150 250° West 457 526 37,000  Level FlightAware ADS-B
Thu 12:28:19 62.7010 -51.8590 250° West 458 527 37,000  Level FlightAware ADS-B
Thu 12:28:57 62.6730 -52.0220 250° West 459 528 37,000  Level FlightAware ADS-B
Thu 12:29:29 62.6490 -52.1620 250° West 461 531 37,000  Level FlightAware ADS-B
Thu 12:30:04 62.6250 -52.3060 250° West 462 532 37,000  Level FlightAware ADS-B
Thu 12:30:37 62.6000 -52.4490 249° West 463 533 37,000  Level FlightAware ADS-B
Thu 12:31:16 62.5740 -52.5930 249° West 463 533 37,000  Level FlightAware ADS-B
Thu 12:31:49 62.5440 -52.7670 250° West 463 533 37,000  Level FlightAware ADS-B
Thu 12:32:33 62.5100 -52.9560 249° West 462 532 37,000  Level FlightAware ADS-B
Thu 12:33:20 62.4760 -53.1380 248° West 462 532 37,000  Level FlightAware ADS-B
Thu 12:33:56 62.4520 -53.2690 248° West 462 532 37,000  Level FlightAware ADS-B
Thu 12:34:30 62.4290 -53.3930 248° West 462 532 37,000  Level FlightAware ADS-B
Thu 12:35:07 62.4040 -53.5280 248° West 462 532 37,000  Level FlightAware ADS-B
Thu 12:35:43 62.3790 -53.6590 248° West 462 532 37,000  Level FlightAware ADS-B
Thu 12:36:19 62.3540 -53.7890 248° West 462 532 37,000  Level FlightAware ADS-B
Thu 12:37:07 62.2970 -54.1070 249° West 466 536 37,000  Level FlightAware ADS-B
Thu 12:37:43 62.2710 -54.2370 247° West 466 536 37,000  Level FlightAware ADS-B
Thu 12:38:19 62.2450 -54.3680 247° West 466 536 37,000  Level FlightAware ADS-B
Thu 12:39:01 62.2030 -54.5960 249° West 464 534 37,000  Level FlightAware ADS-B
Thu 12:39:29 62.1780 -54.7250 247° West 464 534 37,000  Level FlightAware ADS-B
Thu 12:40:09 62.1490 -54.8690 247° West 464 534 37,000  Level FlightAware ADS-B
Thu 12:40:43 62.1140 -55.0460 247° West 463 533 37,000  Level FlightAware ADS-B
Thu 12:41:23 62.0820 -55.2100 247° West 464 534 37,000  Level FlightAware ADS-B
Thu 12:42:05 62.0500 -55.3640 246° West 464 534 37,000  Level FlightAware ADS-B
Thu 12:42:42 62.0220 -55.4950 246° West 464 534 37,000  Level FlightAware ADS-B
Thu 12:43:16 61.9970 -55.6160 246° West 464 534 37,000  Level FlightAware ADS-B
Thu 12:43:52 61.9710 -55.7440 247° West 464 534 37,000  Level FlightAware ADS-B
Thu 12:44:29 61.9430 -55.8750 246° West 464 534 37,000  Level FlightAware ADS-B
Thu 12:45:17 61.9070 -56.0450 246° West 464 534 37,000  Level FlightAware ADS-B
Thu 12:45:54 61.8800 -56.1760 246° West 464 534 37,000  Level FlightAware ADS-B
Thu 12:46:31 61.8520 -56.3070 246° West 464 534 37,000  Level FlightAware ADS-B
Thu 12:47:05 61.8270 -56.4270 246° West 464 534 37,000  Level FlightAware ADS-B
Thu 12:47:43 61.7990 -56.5610 246° West 464 534 37,000  Level FlightAware ADS-B
Thu 12:48:17 61.7740 -56.6810 246° West 464 534 37,000  Level FlightAware ADS-B
Thu 12:48:53 61.7470 -56.8070 246° West 464 534 37,000  Level FlightAware ADS-B
Thu 12:49:29 61.7200 -56.9340 246° West 464 534 37,000  Level FlightAware ADS-B
Thu 12:50:06 61.6930 -57.0640 246° West 464 534 37,000  Level FlightAware ADS-B
Thu 12:50:44 61.6640 -57.1980 246° West 464 534 37,000  Level FlightAware ADS-B
Thu 12:50:45 61.6000 -57.4500 244° Southwest 430 495 37,000  Level Gander Center
Thu 12:51:18 61.6390 -57.3170 246° West 464 534 37,000  Level FlightAware ADS-B
Thu 12:51:45 61.5500 -57.7000 247° West 470 541 37,000  Level Gander Center
Thu 12:52:45 61.4833 -57.9500 241° Southwest 470 541 37,000  Level Gander Center
Thu 12:53:00 61.5509 -57.7074 245° Southwest  Level FlightAware Approximate
Thu 12:53:45 61.4333 -58.2000 247° West 470 541 37,000  Level Gander Center
Thu 12:54:00 61.4985 -57.9359 244° Southwest  Level FlightAware Approximate
Thu 12:54:45 61.3833 -58.4333 246° West 470 541 37,000  Level Gander Center
Thu 12:55:00 61.4458 -58.1637 244° Southwest  Level FlightAware Approximate
Thu 12:55:45 61.3167 -58.6833 241° Southwest 480 552 37,000  Level Gander Center
Thu 12:56:45 61.2667 -58.9333 248° West 470 541 37,000  Level Gander Center
Thu 12:57:45 61.2167 -59.1833 248° West 470 541 37,000  Level Gander Center
Thu 12:58:45 61.1500 -59.4167 239° Southwest 470 541 37,000  Level Gander Center
Thu 12:59:45 61.0833 -59.6667 241° Southwest 470 541 37,000  Level Gander Center
Thu 13:00:45 61.0167 -59.8833 238° Southwest 470 541 37,000  Level Gander Center
Thu 13:01:45 61.0000 -60.1167 262° West 460 529 37,000  Level Gander Center
Thu 13:02:45 60.9500 -60.3667 248° West 460 529 37,000  Level Gander Center
Thu 13:03:45 60.9167 -60.6333 256° West 460 529 37,000  Level Gander Center
Thu 13:04:45 60.8667 -60.8667 246° West 460 529 37,000  Level Gander Center
Thu 13:05:45 60.8333 -61.1167 255° West 470 541 37,000  Level Gander Center
Thu 13:06:45 60.7833 -61.3833 249° West 470 541 37,000  Level Gander Center
Thu 13:07:45 60.7500 -61.6167 254° West 460 529 37,000  Level Gander Center
Thu 13:08:45 60.7167 -61.8667 255° West 460 529 37,000  Level Gander Center
Thu 13:09:45 60.6667 -62.1333 249° West 480 552 37,000  Level Gander Center
Thu 13:10:45 60.6333 -62.4000 256° West 460 529 37,000  Level Gander Center
Thu 13:12:10 60.5500 -62.6833 239° Southwest 460 529 37,000 414 Level Montreal Center
Thu 13:13:10 60.4833 -62.8833 236° Southwest 460 529 38,000 500 Climbing Montreal Center
Thu 13:14:10 60.4000 -63.0500 225° Southwest 460 529 38,000  Level Montreal Center
Thu 13:15:10 60.3000 -63.2333 222° Southwest 460 529 38,000  Level Montreal Center
Thu 13:16:10 60.2167 -63.4000 225° Southwest 460 529 38,000  Level Montreal Center
Thu 13:17:10 60.1167 -63.5833 222° Southwest 460 529 38,000  Level Montreal Center
Thu 13:18:10 60.0167 -63.7500 220° Southwest 460 529 38,000  Level Montreal Center
Thu 13:19:10 59.9167 -63.9167 220° Southwest 470 541 38,000  Level Montreal Center
Thu 13:20:10 59.8167 -64.1000 223° Southwest 470 541 38,000  Level Montreal Center
Thu 13:21:10 59.7333 -64.2500 222° Southwest 470 541 38,000  Level Montreal Center
Thu 13:22:10 59.6167 -64.4000 213° Southwest 470 541 38,000  Level Montreal Center
Thu 13:23:10 59.5167 -64.6000 225° Southwest 470 541 38,000  Level Montreal Center
Thu 13:24:10 59.4167 -64.7667 220° Southwest 470 541 38,000  Level Montreal Center
Thu 13:25:10 59.3000 -64.9000 210° Southwest 460 529 38,000  Level Montreal Center
Thu 13:26:10 59.2167 -65.0667 226° Southwest 460 529 38,000  Level Montreal Center
Thu 13:27:10 59.1167 -65.2333 221° Southwest 460 529 38,000  Level Montreal Center
Thu 13:28:10 59.0167 -65.3833 218° Southwest 460 529 38,000  Level Montreal Center
Thu 13:29:10 58.9167 -65.5500 221° Southwest 460 529 38,000  Level Montreal Center
Thu 13:30:10 58.8167 -65.7167 221° Southwest 460 529 38,000  Level Montreal Center
Thu 13:31:10 58.7167 -65.8667 218° Southwest 460 529 38,000  Level Montreal Center
Thu 13:32:10 58.6167 -66.0333 221° Southwest 460 529 38,000  Level Montreal Center
Thu 13:33:10 58.5167 -66.1833 218° Southwest 460 529 38,000  Level Montreal Center
Thu 13:34:10 58.4167 -66.3167 215° Southwest 460 529 38,000  Level Montreal Center
Thu 13:35:10 58.3333 -66.4667 223° Southwest 460 529 38,000  Level Montreal Center
Thu 13:36:10 58.2167 -66.6167 214° Southwest 460 529 38,000  Level Montreal Center
Thu 13:37:10 58.1167 -66.7667 218° Southwest 450 518 38,000  Level Montreal Center
Thu 13:38:10 58.0167 -66.9333 221° Southwest 450 518 38,000  Level Montreal Center
Thu 13:39:10 57.9167 -67.0833 219° Southwest 450 518 38,000  Level Montreal Center
Thu 13:40:10 57.8167 -67.2333 219° Southwest 450 518 38,000  Level Montreal Center
Thu 13:41:10 57.7167 -67.3833 219° Southwest 450 518 38,000  Level Montreal Center
Thu 13:42:10 57.6167 -67.5000 212° Southwest 450 518 38,000  Level Montreal Center
Thu 13:43:10 57.5167 -67.6500 219° Southwest 450 518 38,000  Level Montreal Center
Thu 13:44:10 57.4167 -67.8000 219° Southwest 450 518 38,000  Level Montreal Center
Thu 13:45:10 57.3167 -67.9500 219° Southwest 450 518 38,000  Level Montreal Center
Thu 13:46:10 57.2167 -68.0833 216° Southwest 460 529 38,000  Level Montreal Center
Thu 13:47:10 57.1167 -68.2333 219° Southwest 460 529 38,000  Level Montreal Center
Thu 13:48:10 57.0167 -68.3500 212° Southwest 460 529 38,000  Level Montreal Center
Thu 13:49:10 56.9000 -68.5000 215° Southwest 460 529 38,000  Level Montreal Center
Thu 13:50:10 56.8167 -68.6333 221° Southwest 460 529 38,000  Level Montreal Center
Thu 13:51:10 56.7000 -68.7833 215° Southwest 460 529 38,000  Level Montreal Center
Thu 13:52:10 56.6167 -68.9167 221° Southwest 460 529 38,000  Level Montreal Center
Thu 13:53:10 56.5000 -69.0667 215° Southwest 450 518 38,000  Level Montreal Center
Thu 13:54:10 56.3833 -69.2000 212° Southwest 450 518 38,000  Level Montreal Center
Thu 13:55:10 56.3000 -69.3500 225° Southwest 450 518 38,000  Level Montreal Center
Thu 13:56:10 56.1833 -69.4500 206° Southwest 450 518 38,000  Level Montreal Center
Thu 13:57:10 56.0833 -69.5833 217° Southwest 450 518 38,000  Level Montreal Center
Thu 13:58:10 56.0000 -69.7333 225° Southwest 450 518 38,000  Level Montreal Center
Thu 13:59:10 55.8833 -69.8667 213° Southwest 450 518 38,000  Level Montreal Center
Thu 14:00:10 55.7833 -70.0000 217° Southwest 450 518 38,000  Level Montreal Center
Thu 14:01:10 55.7000 -70.1333 222° Southwest 450 518 38,000  Level Montreal Center
Thu 14:02:10 55.5833 -70.2333 206° Southwest 440 506 38,000  Level Montreal Center
Thu 14:03:10 55.4833 -70.3667 217° Southwest 440 506 38,000  Level Montreal Center
Thu 14:04:10 55.3833 -70.5000 217° Southwest 440 506 38,000  Level Montreal Center
Thu 14:05:10 55.3000 -70.6000 214° Southwest 440 506 38,000  Level Montreal Center
Thu 14:06:10 55.1833 -70.7333 213° Southwest 440 506 38,000  Level Montreal Center
Thu 14:07:10 55.0667 -70.8667 213° Southwest 440 506 38,000  Level Montreal Center
Thu 14:08:10 54.9833 -71.0000 223° Southwest 440 506 38,000  Level Montreal Center
Thu 14:09:10 54.8833 -71.1000 210° Southwest 430 495 38,000  Level Montreal Center
Thu 14:10:10 54.7833 -71.2333 218° Southwest 440 506 38,000  Level Montreal Center
Thu 14:11:10 54.6833 -71.3333 210° Southwest 440 506 38,000  Level Montreal Center
Thu 14:12:10 54.5833 -71.4500 214° Southwest 430 495 38,000  Level Montreal Center
Thu 14:13:10 54.4667 -71.5833 214° Southwest 430 495 38,000  Level Montreal Center
Thu 14:14:10 54.3833 -71.7167 223° Southwest 430 495 38,000  Level Montreal Center
Thu 14:15:10 54.2833 -71.8167 210° Southwest 430 495 38,000  Level Montreal Center
Thu 14:16:10 54.1667 -71.9333 210° Southwest 430 495 38,000  Level Montreal Center
Thu 14:17:10 54.0667 -72.0667 218° Southwest 430 495 38,000  Level Montreal Center
Thu 14:18:10 53.9667 -72.1500 206° Southwest 430 495 38,000  Level Montreal Center
Thu 14:19:10 53.8667 -72.2833 218° Southwest 430 495 38,000  Level Montreal Center
Thu 14:20:10 53.7667 -72.4000 215° Southwest 430 495 38,000  Level Montreal Center
Thu 14:21:10 53.6833 -72.5000 215° Southwest 430 495 38,000  Level Montreal Center
Thu 14:22:10 53.5833 -72.6167 215° Southwest 420 483 38,000  Level Montreal Center
Thu 14:23:10 53.4833 -72.7167 211° Southwest 420 483 38,000  Level Montreal Center
Thu 14:24:10 53.3833 -72.8333 215° Southwest 420 483 38,000  Level Montreal Center
Thu 14:25:10 53.2833 -72.9167 206° Southwest 420 483 38,000  Level Montreal Center
Thu 14:26:10 53.1833 -73.0333 215° Southwest 420 483 38,000  Level Montreal Center
Thu 14:27:10 53.0667 -73.1667 214° Southwest 420 483 38,000  Level Montreal Center
Thu 14:28:10 52.9667 -73.2500 207° Southwest 420 483 38,000  Level Montreal Center
Thu 14:29:10 52.8833 -73.3667 220° Southwest 420 483 38,000  Level Montreal Center
Thu 14:30:10 52.7833 -73.4500 207° Southwest 410 472 38,000  Level Montreal Center
Thu 14:31:10 52.7000 -73.5667 220° Southwest 410 472 38,000  Level Montreal Center
Thu 14:32:10 52.6000 -73.6667 211° Southwest 410 472 38,000  Level Montreal Center
Thu 14:33:10 52.5000 -73.7833 215° Southwest 410 472 38,000  Level Montreal Center
Thu 14:34:10 52.4000 -73.8667 207° Southwest 410 472 38,000  Level Montreal Center
Thu 14:35:10 52.3167 -73.9833 221° Southwest 400 460 38,000  Level Montreal Center
Thu 14:36:10 52.2167 -74.0667 207° Southwest 400 460 38,000  Level Montreal Center
Thu 14:37:10 52.1167 -74.1500 207° Southwest 400 460 38,000  Level Montreal Center
Thu 14:38:10 52.0167 -74.2667 216° Southwest 400 460 38,000  Level Montreal Center
Thu 14:39:10 51.9167 -74.3500 207° Southwest 400 460 38,000  Level Montreal Center
Thu 14:40:10 51.8167 -74.4667 216° Southwest 400 460 38,000  Level Montreal Center
Thu 14:41:10 51.7333 -74.5500 212° Southwest 400 460 38,000  Level Montreal Center
Thu 14:42:10 51.6333 -74.6333 207° Southwest 400 460 38,000  Level Montreal Center
Thu 14:43:10 51.5333 -74.7500 216° Southwest 400 460 38,000  Level Montreal Center
Thu 14:44:10 51.4500 -74.8333 212° Southwest 400 460 38,000  Level Montreal Center
Thu 14:45:10 51.3500 -74.9333 212° Southwest 400 460 38,000  Level Montreal Center
Thu 14:46:10 51.2500 -75.0167 208° Southwest 400 460 38,000  Level Montreal Center
Thu 14:47:10 51.1667 -75.1333 221° Southwest 400 460 38,000  Level Montreal Center
Thu 14:48:10 51.0667 -75.2167 208° Southwest 400 460 38,000  Level Montreal Center
Thu 14:49:10 50.9667 -75.3000 208° Southwest 400 460 38,000  Level Montreal Center
Thu 14:50:10 50.8833 -75.4000 217° Southwest 390 449 38,000  Level Montreal Center
Thu 14:51:10 50.7833 -75.4833 208° Southwest 400 460 38,000  Level Montreal Center
Thu 14:52:10 50.6833 -75.5667 208° Southwest 400 460 38,000  Level Montreal Center
Thu 14:53:10 50.5833 -75.6667 212° Southwest 400 460 38,000  Level Montreal Center
Thu 14:54:10 50.5000 -75.7500 212° Southwest 400 460 38,000  Level Montreal Center
Thu 14:55:10 50.4000 -75.8667 217° Southwest 410 472 38,000  Level Montreal Center
Thu 14:56:10 50.3000 -75.9333 203° Southwest 410 472 38,000  Level Montreal Center
Thu 14:57:10 50.2000 -76.0167 208° Southwest 410 472 38,000  Level Montreal Center
Thu 14:58:10 50.1000 -76.1167 213° Southwest 410 472 38,000  Level Montreal Center
Thu 14:59:10 50.0000 -76.2000 208° Southwest 410 472 38,000  Level Montreal Center
Thu 15:00:10 49.8833 -76.3000 209° Southwest 410 472 38,000  Level Montreal Center
Thu 15:01:10 49.8000 -76.3833 213° Southwest 410 472 38,000  Level Montreal Center
Thu 15:02:10 49.7000 -76.4833 213° Southwest 410 472 38,000  Level Montreal Center
Thu 15:03:10 49.6000 -76.5667 208° Southwest 400 460 38,000  Level Montreal Center
Thu 15:04:10 49.5000 -76.6667 213° Southwest 410 472 38,000  Level Montreal Center
Thu 15:05:10 49.4000 -76.7333 203° Southwest 420 483 38,000  Level Montreal Center
Thu 15:06:10 49.3167 -76.8500 222° Southwest 400 460 38,000  Level Montreal Center
Thu 15:07:10 49.2167 -76.9167 204° Southwest 410 472 38,000  Level Montreal Center
Thu 15:08:10 49.1167 -77.0167 213° Southwest 410 472 38,000  Level Montreal Center
Thu 15:09:10 49.0167 -77.1000 209° Southwest 410 472 38,000  Level Montreal Center
Thu 15:10:10 48.9167 -77.2000 213° Southwest 410 472 38,000  Level Montreal Center
Thu 15:11:10 48.8000 -77.2667 201° Southwest 410 472 38,000  Level Montreal Center
Thu 15:12:10 48.7000 -77.3667 213° Southwest 410 472 38,000  Level Montreal Center
Thu 15:13:10 48.6000 -77.4667 213° Southwest 410 472 38,000  Level Montreal Center
Thu 15:19:08 47.9920 -77.9280 213° Southwest 429 494 38,000  Level FlightAware ADS-B
Thu 15:19:45 47.9340 -77.9630 202° Southwest 429 494 38,000  Level FlightAware ADS-B
Thu 15:20:21 47.8780 -77.9970 202° Southwest 429 494 38,000  Level FlightAware ADS-B
Thu 15:20:56 47.7870 -78.0470 200° South 434 499 38,000  Level FlightAware ADS-B
Thu 15:21:29 47.7270 -78.0820 201° Southwest 436 502 38,000  Level FlightAware ADS-B
Thu 15:22:07 47.6520 -78.1250 201° Southwest 437 503 38,000  Level FlightAware ADS-B
Thu 15:22:39 47.5930 -78.1600 202° Southwest 436 502 38,000  Level FlightAware ADS-B
Thu 15:23:15 47.5240 -78.1990 201° Southwest 435 501 38,000  Level FlightAware ADS-B
Thu 15:23:51 47.4570 -78.2380 201° Southwest 434 499 38,000  Level FlightAware ADS-B
Thu 15:24:23 47.3980 -78.2710 201° Southwest 433 498 38,000  Level FlightAware ADS-B
Thu 15:24:59 47.3330 -78.3080 201° Southwest 434 499 38,000  Level FlightAware ADS-B
Thu 15:25:35 47.2640 -78.3480 201° Southwest 434 499 38,000  Level FlightAware ADS-B
Thu 15:26:11 47.1960 -78.3860 201° Southwest 434 499 38,000  Level FlightAware ADS-B
Thu 15:26:46 47.1330 -78.4220 201° Southwest 434 499 38,000  Level FlightAware ADS-B
Thu 15:27:20 47.0670 -78.4590 201° Southwest 435 501 38,000  Level FlightAware ADS-B
Thu 15:27:53 47.0060 -78.4940 201° Southwest 437 503 38,000  Level FlightAware ADS-B
Thu 15:28:31 46.9330 -78.5340 201° Southwest 439 505 38,000  Level FlightAware ADS-B
Thu 15:29:04 46.8720 -78.5690 201° Southwest 439 505 38,000  Level FlightAware ADS-B
Thu 15:29:41 46.8000 -78.6090 201° Southwest 438 504 38,000  Level FlightAware ADS-B
Thu 15:30:17 46.7330 -78.6460 201° Southwest 438 504 38,000  Level FlightAware ADS-B
Thu 15:30:49 46.6730 -78.6800 201° Southwest 439 505 38,000  Level FlightAware ADS-B
Thu 15:31:25 46.6030 -78.7180 200° South 440 506 38,000  Level FlightAware ADS-B
Thu 15:32:01 46.5360 -78.7550 201° Southwest 440 506 38,000  Level FlightAware ADS-B
Thu 15:32:37 46.4670 -78.7930 201° Southwest 440 506 38,000  Level FlightAware ADS-B
Thu 15:33:09 46.4060 -78.8270 201° Southwest 440 506 38,000  Level FlightAware ADS-B
Thu 15:33:45 46.3370 -78.8640 200° South 439 505 38,000  Level FlightAware ADS-B
Thu 15:34:21 46.2680 -78.9020 201° Southwest 441 507 38,000  Level FlightAware ADS-B
Thu 15:34:54 46.2070 -78.9360 201° Southwest 442 509 38,000  Level FlightAware ADS-B
Thu 15:35:31 46.1350 -78.9750 201° Southwest 443 510 38,000  Level FlightAware ADS-B
Thu 15:36:05 46.0700 -79.0100 200° South 444 511 38,000  Level FlightAware ADS-B
Thu 15:36:43 45.9970 -79.0490 200° South 445 512 38,000  Level FlightAware ADS-B
Thu 15:37:17 45.9310 -79.0850 201° Southwest 445 512 38,000  Level FlightAware ADS-B
Thu 15:37:53 45.8630 -79.1210 200° South 446 513 38,000  Level FlightAware ADS-B
Thu 15:38:25 45.8000 -79.1550 201° Southwest 447 514 38,000  Level FlightAware ADS-B
Thu 15:39:00 45.7340 -79.1910 201° Southwest 447 514 38,000  Level FlightAware ADS-B
Thu 15:39:37 45.6610 -79.2300 200° South 446 513 38,000  Level FlightAware ADS-B
Thu 15:40:09 45.5980 -79.2630 200° South 446 513 38,000  Level FlightAware ADS-B
Thu 15:40:45 45.5300 -79.2990 200° South 445 512 38,000  Level FlightAware ADS-B
Thu 15:41:19 45.4630 -79.3350 201° Southwest 446 513 38,000  Level FlightAware ADS-B
Thu 15:41:53 45.3970 -79.3700 200° South 446 513 38,000  Level FlightAware ADS-B
Thu 15:42:30 45.3280 -79.4060 200° South 444 511 38,000  Level FlightAware ADS-B
Thu 15:43:05 45.2590 -79.4420 200° South 443 510 38,000  Level FlightAware ADS-B
Thu 15:43:49 45.1810 -79.4830 200° South 443 510 38,000  Level FlightAware ADS-B
Thu 15:44:24 45.1130 -79.5190 200° South 443 510 38,000  Level FlightAware ADS-B
Thu 15:44:54 45.0560 -79.5490 200° South 444 511 38,000  Level FlightAware ADS-B
Thu 15:45:31 44.9870 -79.5840 200° South 445 512 38,000  Level FlightAware ADS-B
Thu 15:46:09 44.9100 -79.6240 200° South 445 512 38,000  Level FlightAware ADS-B
Thu 15:46:44 44.8490 -79.6560 200° South 445 512 38,000  Level FlightAware ADS-B
Thu 15:47:14 44.7850 -79.6890 200° South 446 513 38,000  Level FlightAware ADS-B
Thu 15:47:49 44.7260 -79.7190 200° South 446 513 38,000  Level FlightAware ADS-B
Thu 15:48:24 44.6500 -79.7590 201° Southwest 445 512 38,000  Level FlightAware ADS-B
Thu 15:49:04 44.5760 -79.8020 202° Southwest 443 510 38,000  Level FlightAware ADS-B
Thu 15:49:39 44.5150 -79.8520 210° Southwest 442 509 38,000  Level FlightAware ADS-B
Thu 15:50:14 44.4480 -79.9140 213° Southwest 442 509 38,000  Level FlightAware ADS-B
Thu 15:50:47 44.3970 -79.9600 213° Southwest 441 507 38,000  Level FlightAware ADS-B
Thu 15:51:55 44.2740 -80.0710 213° Southwest 442 509 38,000  Level FlightAware ADS-B
Thu 15:52:33 44.2160 -80.1220 212° Southwest 440 506 38,000  Level FlightAware ADS-B
Thu 15:53:08 44.1510 -80.1800 213° Southwest 439 505 38,000  Level FlightAware ADS-B
Thu 15:53:43 44.0930 -80.2310 212° Southwest 440 506 38,000  Level FlightAware ADS-B
Thu 15:54:19 44.0280 -80.2900 213° Southwest 441 507 38,000  Level FlightAware ADS-B
Thu 15:54:52 43.9730 -80.3380 212° Southwest 442 509 38,000  Level FlightAware ADS-B
Thu 15:55:24 43.9170 -80.3870 212° Southwest 443 510 38,000  Level FlightAware ADS-B
Thu 15:56:04 43.8500 -80.4460 212° Southwest 443 510 38,000  Level FlightAware ADS-B
Thu 15:56:38 43.7880 -80.5010 213° Southwest 444 511 38,000  Level FlightAware ADS-B
Thu 15:57:20 43.7140 -80.5650 212° Southwest 445 512 38,000  Level FlightAware ADS-B
Thu 15:57:55 43.6550 -80.6180 213° Southwest 446 513 38,000  Level FlightAware ADS-B
Thu 15:58:29 43.5950 -80.6700 212° Southwest 447 514 38,000  Level FlightAware ADS-B
Thu 15:59:06 43.5330 -80.7240 212° Southwest 447 514 38,000  Level FlightAware ADS-B
Thu 15:59:38 43.4780 -80.7710 212° Southwest 447 514 38,000  Level FlightAware ADS-B
Thu 16:00:17 43.4050 -80.8340 212° Southwest 446 513 38,000  Level FlightAware ADS-B
Thu 16:00:48 43.3520 -80.8800 212° Southwest 446 513 38,000  Level FlightAware ADS-B
Thu 16:01:27 43.2830 -80.9400 212° Southwest 446 513 38,000  Level FlightAware ADS-B
Thu 16:01:58 43.2300 -80.9850 212° Southwest 446 513 38,000  Level FlightAware ADS-B
Thu 16:02:34 43.1700 -81.0360 212° Southwest 447 514 38,000  Level FlightAware ADS-B
Thu 16:03:09 43.1050 -81.0920 212° Southwest 447 514 38,000  Level FlightAware ADS-B
Thu 16:03:46 43.0400 -81.1450 211° Southwest 447 514 38,000  Level FlightAware ADS-B
Thu 16:04:18 42.9800 -81.1830 205° Southwest 447 514 38,000  Level FlightAware ADS-B
Thu 16:04:55 42.9100 -81.2270 205° Southwest 447 514 38,000  Level FlightAware ADS-B
Thu 16:05:27 42.8500 -81.2650 205° Southwest 447 514 38,000  Level FlightAware ADS-B
Thu 16:06:02 42.7850 -81.3060 205° Southwest 448 516 38,000  Level FlightAware ADS-B
Thu 16:06:39 42.7140 -81.3490 204° Southwest 450 518 38,000  Level FlightAware ADS-B
Thu 16:07:16 42.6450 -81.3910 204° Southwest 451 519 38,000  Level FlightAware ADS-B
Thu 16:07:51 42.5780 -81.4320 204° Southwest 452 520 38,000  Level FlightAware ADS-B
Thu 16:08:22 42.5170 -81.4690 204° Southwest 453 521 38,000  Level FlightAware ADS-B
Thu 16:08:59 42.4460 -81.5120 204° Southwest 453 521 38,000  Level FlightAware ADS-B
Thu 16:09:33 42.3830 -81.5510 205° Southwest 453 521 38,000  Level FlightAware ADS-B
Thu 16:10:09 42.3140 -81.5930 204° Southwest 453 521 38,000  Level FlightAware ADS-B
Thu 16:10:46 42.2430 -81.6360 204° Southwest 453 521 38,000  Level FlightAware ADS-B
Thu 16:11:08 42.2020 -81.6600 203° Southwest 453 521 38,000  Level FlightAware ADS-B
Thu 16:11:59 42.1040 -81.7190 204° Southwest 454 522 38,000  Level FlightAware ADS-B
Thu 16:12:33 42.0390 -81.7580 204° Southwest 455 524 38,000  Level FlightAware ADS-B
Thu 16:13:05 41.9780 -81.7950 204° Southwest 456 525 38,000  Level FlightAware ADS-B
Thu 16:13:46 41.8970 -81.8430 204° Southwest 456 525 38,000  Level FlightAware ADS-B
Thu 16:14:21 41.8330 -81.8810 204° Southwest 455 524 38,000  Level FlightAware ADS-B
Thu 16:14:57 41.7630 -81.9230 204° Southwest 455 524 38,000  Level FlightAware ADS-B
Thu 16:15:28 41.7030 -81.9590 204° Southwest 456 525 38,000  Level FlightAware ADS-B
Thu 16:16:04 41.6310 -82.0020 204° Southwest 456 525 38,000  Level FlightAware ADS-B
Thu 16:16:42 41.5630 -82.0420 204° Southwest 455 524 38,000  Level FlightAware ADS-B
Thu 16:17:14 41.4980 -82.0800 204° Southwest 453 521 38,000  Level FlightAware ADS-B
Thu 16:17:52 41.4270 -82.1220 204° Southwest 452 520 38,000  Level FlightAware ADS-B
Thu 16:18:35 41.3420 -82.1660 201° Southwest 453 521 38,000  Level FlightAware ADS-B
Thu 16:19:05 41.2830 -82.1870 195° South 454 522 38,000  Level FlightAware ADS-B
Thu 16:19:42 41.2060 -82.2160 196° South 455 524 38,000  Level FlightAware ADS-B
Thu 16:20:17 41.1340 -82.2420 195° South 456 525 38,000  Level FlightAware ADS-B
Thu 16:20:53 41.0600 -82.2690 195° South 455 524 38,000  Level FlightAware ADS-B
Thu 16:21:26 40.9940 -82.2920 195° South 456 525 38,000  Level FlightAware ADS-B
Thu 16:22:04 40.9170 -82.3200 195° South 458 527 38,000  Level FlightAware ADS-B
Thu 16:22:35 40.8530 -82.3430 195° South 459 528 38,000  Level FlightAware ADS-B
Thu 16:23:13 40.7780 -82.3690 195° South 460 529 38,000  Level FlightAware ADS-B
Thu 16:23:48 40.7010 -82.3960 195° South 461 531 38,000  Level FlightAware ADS-B
Thu 16:24:25 40.6260 -82.4230 195° South 462 532 38,000  Level FlightAware ADS-B
Thu 16:25:01 40.5510 -82.4490 195° South 464 534 38,000  Level FlightAware ADS-B
Thu 16:25:32 40.4890 -82.4710 195° South 464 534 38,000  Level FlightAware ADS-B
Thu 16:26:09 40.4110 -82.4980 195° South 464 534 38,000  Level FlightAware ADS-B
Thu 16:26:45 40.3360 -82.5240 195° South 464 534 38,000  Level FlightAware ADS-B
Thu 16:27:21 40.2600 -82.5510 195° South 464 534 38,000  Level FlightAware ADS-B
Thu 16:27:53 40.1930 -82.5740 195° South 463 533 38,000  Level FlightAware ADS-B
Thu 16:28:29 40.1170 -82.5890 189° South 464 534 38,000  Level FlightAware ADS-B
Thu 16:29:02 40.0480 -82.5940 183° South 463 533 38,000  Level FlightAware ADS-B
Thu 16:29:36 39.9750 -82.6000 184° South 463 533 38,000  Level FlightAware ADS-B
Thu 16:30:09 39.9030 -82.6050 183° South 462 532 38,000  Level FlightAware ADS-B
Thu 16:30:50 39.8170 -82.6110 183° South 462 532 38,000  Level FlightAware ADS-B
Thu 16:31:26 39.7390 -82.6160 183° South 463 533 38,000  Level FlightAware ADS-B
Thu 16:31:58 39.6720 -82.6210 183° South 464 534 38,000  Level FlightAware ADS-B
Thu 16:32:34 39.5940 -82.6260 183° South 465 535 38,000  Level FlightAware ADS-B
Thu 16:33:09 39.5200 -82.6310 183° South 467 537 38,000  Level FlightAware ADS-B
Thu 16:33:46 39.4400 -82.6360 183° South 468 539 38,000  Level FlightAware ADS-B
Thu 16:34:17 39.3710 -82.6410 183° South 468 539 38,000  Level FlightAware ADS-B
Thu 16:34:54 39.2910 -82.6460 183° South 469 540 38,000  Level FlightAware ADS-B
Thu 16:35:30 39.2120 -82.6520 183° South 469 540 38,000  Level FlightAware ADS-B
Thu 16:36:02 39.1450 -82.6560 183° South 470 541 38,000  Level FlightAware ADS-B
Thu 16:36:38 39.0690 -82.6610 183° South 470 541 38,000  Level FlightAware ADS-B
Thu 16:37:10 38.9990 -82.6660 183° South 471 542 38,000  Level FlightAware ADS-B
Thu 16:37:48 38.9150 -82.6710 183° South 471 542 38,000  Level FlightAware ADS-B
Thu 16:38:25 38.8320 -82.6770 183° South 472 543 38,000  Level FlightAware ADS-B
Thu 16:39:01 38.7540 -82.6820 183° South 473 544 38,000  Level FlightAware ADS-B
Thu 16:39:28 38.6930 -82.6860 183° South 474 545 38,000  Level FlightAware ADS-B
Thu 16:40:09 38.6070 -82.6910 183° South 474 545 38,000  Level FlightAware ADS-B
Thu 16:40:42 38.5310 -82.6960 183° South 475 547 38,000  Level FlightAware ADS-B
Thu 16:41:20 38.4470 -82.7020 183° South 474 545 38,000  Level FlightAware ADS-B
Thu 16:41:52 38.3780 -82.7060 183° South 474 545 38,000  Level FlightAware ADS-B
Thu 16:42:29 38.3010 -82.7110 183° South 475 547 38,000  Level FlightAware ADS-B
Thu 16:43:05 38.2180 -82.7170 183° South 475 547 38,000  Level FlightAware ADS-B
Thu 16:43:40 38.1410 -82.7220 183° South 474 545 38,000  Level FlightAware ADS-B
Thu 16:43:55 38.1060 -82.7240 183° South 475 547 38,000  Level FlightAware ADS-B
Thu 16:44:48 38.0000 -82.7310 183° South 474 545 38,000  Level FlightAware ADS-B
Thu 16:45:25 37.9160 -82.7360 183° South 475 547 38,000  Level FlightAware ADS-B
Thu 16:45:35 37.8870 -82.7380 183° South 475 547 38,000  Level FlightAware ADS-B
Thu 16:46:29 37.7740 -82.7460 183° South 478 550 38,000  Level FlightAware ADS-B
Thu 16:47:08 37.6840 -82.7670 190° South 477 549 38,000  Level FlightAware ADS-B
Thu 16:47:40 37.6200 -82.7940 198° South 476 548 38,000  Level FlightAware ADS-B
Thu 16:48:20 37.5390 -82.8420 205° Southwest 474 545 38,000  Level FlightAware ADS-B
Thu 16:48:55 37.4710 -82.8870 208° Southwest 476 548 38,000  Level FlightAware ADS-B
Thu 16:49:27 37.4080 -82.9290 208° Southwest 477 549 38,000  Level FlightAware ADS-B
Thu 16:50:04 37.3360 -82.9760 207° Southwest 477 549 38,000  Level FlightAware ADS-B
Thu 16:50:16 37.3124 -82.9920 208° Southwest 478 550 38,000  Level FlightAware ADS-B
Thu 16:50:46 37.2527 -83.0310 207° Southwest 479 551 38,000  Level FlightAware ADS-B
Thu 16:51:18 37.1902 -83.0718 207° Southwest 478 550 38,000  Level FlightAware ADS-B
Thu 16:52:06 37.0969 -83.1327 208° Southwest 478 550 38,000  Level FlightAware ADS-B
Thu 16:52:36 37.0379 -83.1710 207° Southwest 478 550 38,000  Level FlightAware ADS-B
Thu 16:53:09 36.9722 -83.2137 207° Southwest 478 550 38,000  Level FlightAware ADS-B
Thu 16:53:42 36.9082 -83.2551 207° Southwest 478 550 38,000  Level FlightAware ADS-B
Thu 16:54:12 36.8479 -83.2941 207° Southwest 478 550 38,000  Level FlightAware ADS-B
Thu 16:54:43 36.7889 -83.3322 207° Southwest 478 550 38,000  Level FlightAware ADS-B
Thu 16:55:17 36.7207 -83.3761 207° Southwest 477 549 38,000  Level FlightAware ADS-B
Thu 16:55:48 36.6605 -83.4147 207° Southwest 476 548 38,000 94 Level FlightAware ADS-B
Thu 16:56:21 36.5966 -83.4557 207° Southwest 475 547 38,100 281 Climbing FlightAware ADS-B
Thu 16:56:52 36.5354 -83.4949 207° Southwest 469 540 38,300 492 Climbing FlightAware ADS-B
Thu 16:57:22 36.4772 -83.5321 207° Southwest 466 536 38,600 590 Climbing FlightAware ADS-B
Thu 16:57:53 36.4187 -83.5696 207° Southwest 461 531 38,900 387 Climbing FlightAware ADS-B
Thu 16:58:24 36.3608 -83.6065 207° Southwest 463 533 39,000 97 Climbing FlightAware ADS-B
Thu 16:58:55 36.3009 -83.6446 207° Southwest 464 534 39,000  Level FlightAware ADS-B
Thu 16:59:25 36.2434 -83.6812 207° Southwest 466 536 39,000  Level FlightAware ADS-B
Thu 16:59:59 36.1777 -83.7228 207° Southwest 469 540 39,000  Level FlightAware ADS-B
Thu 17:00:32 36.1145 -83.7627 207° Southwest 470 541 39,000  Level FlightAware ADS-B
Thu 17:01:04 36.0523 -83.8020 207° Southwest 468 539 39,000  Level FlightAware ADS-B
Thu 17:01:35 35.9934 -83.8391 207° Southwest 468 539 39,000  Level FlightAware ADS-B
Thu 17:01:56 35.9522 -83.8637 206° Southwest 470 541 39,000  Level FlightAware ADS-B
Thu 17:02:26 35.8904 -83.8911 200° South 472 543 39,000  Level FlightAware ADS-B
Thu 17:02:52 35.8357 -83.9090 195° South 476 548 39,000  Level FlightAware ADS-B
Thu 17:03:22 35.7710 -83.9252 191° South 478 550 39,000  Level FlightAware ADS-B
Thu 17:03:53 35.7037 -83.9431 192° South 478 550 39,000  Level FlightAware ADS-B
Thu 17:04:26 35.6309 -83.9615 192° South 480 552 39,000  Level FlightAware ADS-B
Thu 17:05:14 35.5258 -83.9870 191° South 483 556 39,000  Level FlightAware ADS-B
Thu 17:05:45 35.4581 -84.0033 191° South 485 558 39,000  Level FlightAware ADS-B
Thu 17:06:15 35.3917 -84.0193 191° South 487 560 39,000  Level FlightAware ADS-B
Thu 17:06:45 35.3252 -84.0353 191° South 488 562 39,000  Level FlightAware ADS-B
Thu 17:07:17 35.2538 -84.0525 191° South 489 563 39,000  Level FlightAware ADS-B
Thu 17:07:48 35.1870 -84.0686 191° South 490 564 39,000  Level FlightAware ADS-B
Thu 17:08:33 35.0869 -84.0925 191° South 490 564 39,000  Level FlightAware ADS-B
Thu 17:09:03 35.0190 -84.1088 191° South 490 564 39,000  Level FlightAware ADS-B
Thu 17:09:33 34.9521 -84.1247 191° South 489 563 39,000  Level FlightAware ADS-B
Thu 17:10:03 34.8843 -84.1409 191° South 489 563 39,000  Level FlightAware ADS-B
Thu 17:10:36 34.8119 -84.1581 191° South 489 563 39,000  Level FlightAware ADS-B
Thu 17:11:07 34.7441 -84.1742 191° South 489 563 39,000  Level FlightAware ADS-B
Thu 17:11:40 34.6701 -84.1917 191° South 490 564 39,000  Level FlightAware ADS-B
Thu 17:12:11 34.6050 -84.2070 191° South 491 565 39,000  Level FlightAware ADS-B
Thu 17:12:41 34.5335 -84.2240 191° South 491 565 39,000  Level FlightAware ADS-B
Thu 17:13:13 34.4615 -84.2410 191° South 493 567 39,000  Level FlightAware ADS-B
Thu 17:13:44 34.3931 -84.2572 191° South 494 568 39,000  Level FlightAware ADS-B
Thu 17:14:14 34.3251 -84.2731 191° South 494 568 39,000  Level FlightAware ADS-B
Thu 17:14:45 34.2547 -84.2896 191° South 495 570 39,000  Level FlightAware ADS-B
Thu 17:15:44 34.1220 -84.3210 191° South 497 572 39,000  Level FlightAware ADS-B
Thu 17:16:19 34.0480 -84.3380 191° South 499 574 39,000  Level FlightAware ADS-B
Thu 17:16:53 33.9720 -84.3560 191° South 492 566 39,000  Level FlightAware ADS-B
Thu 17:17:25 33.8980 -84.3730 191° South 492 566 39,000  Level FlightAware ADS-B
Thu 17:17:57 33.8204 -84.3909 191° South 500 575 39,000  Level FlightAware ADS-B
Thu 17:18:31 33.7452 -84.4083 191° South 500 575 39,000  Level FlightAware ADS-B
Thu 17:18:57 33.6839 -84.4223 191° South 502 578 39,000  Level FlightAware ADS-B
Thu 17:19:32 33.6026 -84.4319 186° South 501 577 39,000  Level FlightAware ADS-B
Thu 17:19:46 33.5694 -84.4328 181° South 510 587 39,000  Level FlightAware ADS-B
Thu 17:20:17 33.4976 -84.4314 179° South 512 589 39,000  Level FlightAware ADS-B
Thu 17:20:47 33.4257 -84.4305 179° South 513 590 39,000  Level FlightAware ADS-B
Thu 17:21:19 33.3486 -84.4293 179° South 515 593 39,000  Level FlightAware ADS-B
Thu 17:22:02 33.2476 -84.4272 179° South 516 594 39,000  Level FlightAware ADS-B
Thu 17:22:40 33.1554 -84.4254 179° South 516 594 39,000  Level FlightAware ADS-B
Thu 17:23:33 33.0430 -84.4230 179° South 517 595 39,000  Level FlightAware ADS-B
Thu 17:24:09 32.9450 -84.4210 179° South 517 595 39,000  Level FlightAware ADS-B
Thu 17:24:45 32.8600 -84.4190 179° South 517 595 39,000  Level FlightAware ADS-B
Thu 17:25:17 32.7810 -84.4180 179° South 518 596 39,000  Level FlightAware ADS-B
Thu 17:25:52 32.6970 -84.4160 179° South 518 596 39,000  Level FlightAware ADS-B
Thu 17:26:39 32.6060 -84.4140 179° South 518 596 39,000  Level FlightAware ADS-B
Thu 17:27:15 32.5330 -84.4130 179° South 518 596 39,000  Level FlightAware ADS-B
Thu 17:27:51 32.4600 -84.4110 179° South 518 596 39,000  Level FlightAware ADS-B
Thu 17:28:27 32.3860 -84.4100 179° South 518 596 39,000  Level FlightAware ADS-B
Thu 17:29:03 32.3130 -84.4080 179° South 518 596 39,000  Level FlightAware ADS-B
Thu 17:29:32 32.1700 -84.4060 179° South 521 600 39,000  Level FlightAware ADS-B
Thu 17:30:09 32.0780 -84.4040 179° South 521 600 39,000  Level FlightAware ADS-B
Thu 17:30:49 31.9840 -84.4020 179° South 521 600 39,000  Level FlightAware ADS-B
Thu 17:31:19 31.9110 -84.4000 179° South 521 600 39,000  Level FlightAware ADS-B
Thu 17:32:02 31.8060 -84.3980 179° South 521 600 39,000  Level FlightAware ADS-B
Thu 17:32:55 31.6880 -84.3960 179° South 522 601 39,000  Level FlightAware ADS-B
Thu 17:33:29 31.5970 -84.3940 179° South 523 602 39,000  Level FlightAware ADS-B
Thu 17:34:01 31.5210 -84.3930 179° South 524 603 39,000  Level FlightAware ADS-B
Thu 17:34:32 31.4430 -84.3900 178° South 526 605 39,000  Level FlightAware ADS-B
Thu 17:34:51 31.3970 -84.3790 168° South 529 609 39,000  Level FlightAware ADS-B
Thu 17:35:25 31.3210 -84.3400 156° South 531 611 39,000  Level FlightAware ADS-B
Thu 17:36:00 31.2440 -84.2990 156° South 532 612 39,000  Level FlightAware ADS-B
Thu 17:36:35 31.1620 -84.2560 156° South 532 612 39,000  Level FlightAware ADS-B
Thu 17:37:13 31.0789 -84.2113 155° Southeast 530 610 39,000  Level FlightAware ADS-B (KONZ)
Thu 17:37:52 31.0043 -84.1724 156° South 534 615 39,000  Level FlightAware ADS-B (KONZ)
Thu 17:38:23 30.9206 -84.1289 156° South 534 615 39,000  Level FlightAware ADS-B (KONZ)
Thu 17:38:53 30.8533 -84.0938 156° South 534 615 39,000  Level FlightAware ADS-B (KONZ)
Thu 17:39:23 30.7840 -84.0577 156° South 534 615 39,000  Level FlightAware ADS-B (KONZ)
Thu 17:39:53 30.7176 -84.0232 156° South 534 615 39,000  Level FlightAware ADS-B (KONZ)
Thu 17:40:23 30.6496 -83.9879 156° South 535 616 39,000  Level FlightAware ADS-B (KONZ)
Thu 17:40:53 30.5830 -83.9535 156° South 535 616 39,000  Level FlightAware ADS-B (KONZ)
Thu 17:41:32 30.4950 -83.9080 156° South 536 617 39,000  Level FlightAware ADS-B (KONZ)
Thu 17:42:02 30.4245 -83.8717 156° South 535 616 39,000  Level FlightAware ADS-B (KONZ)
Thu 17:42:33 30.3555 -83.8361 156° South 535 616 39,000  Level FlightAware ADS-B (KONZ)
Thu 17:43:03 30.2870 -83.8010 156° South 534 615 39,000  Level FlightAware ADS-B
Thu 17:43:13 30.2693 -83.7918 156° South 533 613 39,000  Level FlightAware ADS-B (KONZ)
Thu 17:43:51 30.1831 -83.7475 156° South 533 613 39,000  Level FlightAware ADS-B (KONZ)
Thu 17:44:31 30.0901 -83.6999 156° South 533 613 39,000  Level FlightAware ADS-B (KONZ)
Thu 17:45:03 30.0334 -83.6709 156° South 533 613 39,000  Level FlightAware ADS-B (KONZ)
Thu 17:45:55 29.9010 -83.6030 156° South 531 611 39,000  Level FlightAware ADS-B
Thu 17:46:31 29.8190 -83.5620 157° South 530 610 39,000  Level FlightAware ADS-B
Thu 17:46:51 29.7793 -83.5414 156° South 530 610 39,000  Level FlightAware ADS-B (KONZ)
Thu 17:47:39 29.6690 -83.4860 156° South 529 609 39,000  Level FlightAware ADS-B
Thu 17:48:16 29.5880 -83.4450 156° South 527 606 39,000  Level FlightAware ADS-B
Thu 17:48:54 29.5000 -83.4000 156° South 526 605 39,000  Level FlightAware ADS-B
Thu 17:49:27 29.4290 -83.3640 156° South 526 605 39,000  Level FlightAware ADS-B
Thu 17:50:00 29.3500 -83.3240 156° South 525 604 39,000  Level FlightAware ADS-B
Thu 17:50:35 29.2770 -83.2870 156° South 525 604 39,000  Level FlightAware ADS-B
Thu 17:51:10 29.1950 -83.2470 157° South 524 603 39,000  Level FlightAware ADS-B
Thu 17:51:42 29.1240 -83.2110 156° South 524 603 39,000  Level FlightAware ADS-B
Thu 17:52:23 29.0340 -83.1660 156° South 525 604 39,000  Level FlightAware ADS-B
Thu 17:52:58 28.9560 -83.1270 156° South 525 604 39,000  Level FlightAware ADS-B
Thu 17:53:33 28.8770 -83.0880 157° South 525 604 39,000  Level FlightAware ADS-B
Thu 17:54:05 28.8040 -83.0510 156° South 525 604 39,000  Level FlightAware ADS-B
Thu 17:54:41 28.7250 -83.0120 157° South 523 602 39,000  Level FlightAware ADS-B
Thu 17:55:13 28.6550 -82.9770 156° South 523 602 39,000  Level FlightAware ADS-B
Thu 17:55:54 28.5640 -82.9320 157° South 522 601 39,000  Level FlightAware ADS-B
Thu 17:56:26 28.4940 -82.8970 156° South 521 600 39,000  Level FlightAware ADS-B
Thu 17:57:02 28.4110 -82.8560 157° South 522 601 39,000  Level FlightAware ADS-B
Thu 17:57:35 28.3390 -82.8210 157° South 522 601 39,000  Level FlightAware ADS-B
Thu 17:58:12 28.2560 -82.7800 156° South 523 602 39,000  Level FlightAware ADS-B
Thu 17:58:44 28.1850 -82.7450 157° South 524 603 39,000  Level FlightAware ADS-B
Thu 17:59:22 28.1030 -82.7050 157° South 524 603 39,000  Level FlightAware ADS-B
Thu 17:59:58 28.0210 -82.6640 156° South 524 603 39,000  Level FlightAware ADS-B
Thu 18:00:33 27.9440 -82.6270 157° South 525 604 39,000  Level FlightAware ADS-B
Thu 18:01:07 27.8690 -82.5900 156° South 524 603 39,000  Level FlightAware ADS-B
Thu 18:01:42 27.7900 -82.5520 157° South 523 602 39,000  Level FlightAware ADS-B
Thu 18:02:19 27.7100 -82.5130 157° South 523 602 39,000  Level FlightAware ADS-B
Thu 18:02:51 27.6350 -82.4760 156° South 524 603 39,000  Level FlightAware ADS-B
Thu 18:03:25 27.5590 -82.4470 161° South 522 601 39,000  Level FlightAware ADS-B
Thu 18:04:01 27.4780 -82.4450 179° South 519 597 39,000  Level FlightAware ADS-B
Thu 18:04:39 27.3810 -82.4470 181° South 518 596 39,000  Level FlightAware ADS-B
Thu 18:05:11 27.3060 -82.4490 181° South 517 595 39,000  Level FlightAware ADS-B
Thu 18:05:46 27.2240 -82.4500 181° South 516 594 39,000  Level FlightAware ADS-B
Thu 18:06:22 27.1350 -82.4520 181° South 515 593 39,000  Level FlightAware ADS-B
Thu 18:06:59 27.0480 -82.4540 181° South 515 593 39,000  Level FlightAware ADS-B
Thu 18:07:31 26.9690 -82.4560 181° South 516 594 39,000  Level FlightAware ADS-B
Thu 18:08:06 26.8890 -82.4580 181° South 517 595 39,000  Level FlightAware ADS-B
Thu 18:08:42 26.8040 -82.4600 181° South 517 595 39,000  Level FlightAware ADS-B
Thu 18:09:14 26.7290 -82.4610 181° South 518 596 39,000  Level FlightAware ADS-B
Thu 18:09:51 26.6410 -82.4630 181° South 518 596 39,000  Level FlightAware ADS-B
Thu 18:10:26 26.5520 -82.4650 181° South 511 588 39,000  Level FlightAware ADS-B
Thu 18:11:02 26.4720 -82.4670 181° South 512 589 39,000  Level FlightAware ADS-B
Thu 18:11:39 26.3860 -82.4690 181° South 512 589 39,000  Level FlightAware ADS-B
Thu 18:12:10 26.3030 -82.4700 181° South 513 590 39,000  Level FlightAware ADS-B
Thu 18:12:46 26.2170 -82.4720 181° South 513 590 39,000  Level FlightAware ADS-B
Thu 18:13:18 26.1380 -82.4740 181° South 512 589 39,000  Level FlightAware ADS-B
Thu 18:13:55 26.0490 -82.4760 181° South 512 589 39,000  Level FlightAware ADS-B
Thu 18:14:26 25.9810 -82.4770 181° South 512 589 39,000  Level FlightAware ADS-B
Thu 18:15:06 25.8850 -82.4790 181° South 513 590 39,000  Level FlightAware ADS-B
Thu 18:15:42 25.7920 -82.4810 181° South 514 592 39,000  Level FlightAware ADS-B
Thu 18:16:17 25.7080 -82.4830 181° South 515 593 39,000 -174 Level FlightAware ADS-B
Thu 18:16:51 25.6260 -82.4850 181° South 516 594 38,800 -720 Descending FlightAware ADS-B
Thu 18:17:32 25.5260 -82.4870 181° South 517 595 38,100 -987 Descending FlightAware ADS-B
Thu 18:18:10 25.4400 -82.4890 181° South 500 575 37,500 -1,043 Descending FlightAware ADS-B
Thu 18:18:41 25.3610 -82.4900 181° South 502 578 36,900 -985 Descending FlightAware ADS-B
Thu 18:19:17 25.2850 -82.4920 181° South 499 574 36,400 -882 Descending FlightAware ADS-B
Thu 18:19:49 25.2090 -82.4940 181° South 482 555 35,900 -1,059 Descending FlightAware ADS-B
Thu 18:20:25 25.1260 -82.4950 181° South 481 554 35,200 -560 Descending FlightAware ADS-B
Thu 18:21:04 25.0520 -82.4970 181° South 481 554 35,200  Level FlightAware ADS-B
Thu 18:21:41 24.9820 -82.4980 181° South 481 554 35,200 -1,500 Level FlightAware ADS-B
Thu 18:22:12 24.8890 -82.5000 181° South 463 533 33,500 -2,025 Descending FlightAware ADS-B
Thu 18:23:01 24.7820 -82.5030 181° South 450 518 32,500 -638 Descending FlightAware ADS-B
Thu 18:23:46 24.7100 -82.5040 181° South 450 518 32,500 -1,558 Level FlightAware ADS-B
Thu 18:24:18 24.6340 -82.5060 181° South 450 518 30,500 -1,714 Descending FlightAware ADS-B
Thu 18:24:56 24.5670 -82.5070 181° South 450 518 30,500  Level FlightAware ADS-B
Thu 18:25:32 24.5030 -82.5080 181° South 450 518 30,500  Level FlightAware ADS-B
Thu 18:26:09 24.4380 -82.5090 181° South 450 518 30,500  Level FlightAware ADS-B
Thu 18:26:45 24.3740 -82.5110 182° South 450 518 30,500  Level FlightAware ADS-B
Thu 18:27:21 24.3110 -82.5120 181° South 450 518 30,500  Level FlightAware ADS-B
Thu 18:27:58 24.2450 -82.5130 181° South 450 518 30,500  Level FlightAware ADS-B
Thu 18:28:35 24.1800 -82.5140 181° South 450 518 30,500  Level FlightAware ADS-B
Thu 18:29:11 24.1160 -82.5160 182° South 450 518 30,500  Level FlightAware ADS-B
Thu 18:29:47 24.0520 -82.5170 181° South 450 518 30,500  Level FlightAware ADS-B
Thu 18:30:33 23.9710 -82.5180 181° South 450 518 30,500  Level FlightAware ADS-B
Thu 18:31:09 23.9070 -82.5190 181° South 450 518 30,500  Level FlightAware ADS-B
Thu 18:31:45 23.8430 -82.5210 182° South 450 518 30,500  Level FlightAware ADS-B
Thu 18:32:22 23.7780 -82.5220 181° South 450 518 30,500  Level FlightAware ADS-B
Thu 18:32:58 23.7140 -82.5230 181° South 450 518 30,500  Level FlightAware ADS-B
Thu 18:33:35 23.6490 -82.5240 181° South 450 518 30,500  Level FlightAware ADS-B
Thu 18:36:00 23.3614 -82.4311 175° South  Level FlightAware Approximate
Thu 18:37:00 23.2400 -82.4190 175° South  Level FlightAware Approximate
Thu 18:38:00 23.1185 -82.4137 170° South  Level FlightAware Approximate
Thu 18:39:00 22.9978 -82.4000 180° South  Level FlightAware Approximate
Thu 18:40:00 22.9891 -82.4091 180° South  Level Estimated
Thu 18:41:00 22.9891 -82.4091 180° South  Level Estimated
Thu 18:42:00 22.9891 -82.4091 180° South  Level Estimated
Thu 18:43:00 22.9891 -82.4091 180° South  Level Estimated
Thu 18:44:00 22.9891 -82.4091 180° South  Level Estimated
Thu 18:45:00 22.9891 -82.4091 180° South  Level Estimated
Thu 18:46:00 22.9891 -82.4091 180° South  Level Estimated
Thu 18:47:00 22.9891 -82.4091 180° South  Level Estimated
Thu 18:48:00 22.9891 -82.4091 180° South  Level Estimated
Thu 18:49:00 22.9891 -82.4091 180° South  Level Estimated
Thu 18:50:00 22.9891 -82.4091 180° South  Level Estimated
Thu 18:51:00 22.9891 -82.4091 180° South  Level Estimated
Thu 18:52:00 22.9891 -82.4091 180° South  Level Estimated
Thu 18:53:00 22.9891 -82.4091 180° South  Level Estimated
Thu 18:54:00 22.9891 -82.4091 180° South  Level Estimated
Thu 18:55:00 22.9891 -82.4091 180° South  Level Estimated
Thu 18:56:00 22.9891 -82.4091 180° South  Level Estimated
Thu 18:57:00 22.9891 -82.4091 180° South  Level Estimated
Thu 18:58:00 22.9891 -82.4091 180° South  Level Estimated
Thu 18:59:00 22.9891 -82.4091 180° South  Level Estimated
Thu 19:00:00 22.9891 -82.4091 180° South  Level Estimated

Login

Don't have an account? Register now (free) for customized features, flight alerts, and more!